Observation data for Smyer on 08/20/2019      Previous  Date  Next       Current Mesonet Observations  Soil Data  Daily Summary Page  Observations in Plain Language
KSM2 200500Z 15007KT 29/15 A3009 RMK A01 T02880146  RH  042%=      5-min Rain = 0
KSM2 200501Z 15007KT 29/15 A3009 RMK A01 T02880146  RH  042%=      5-min Rain = 0
KSM2 200502Z 15007KT 29/15 A3009 RMK A01 T02870146  RH  042%=      5-min Rain = 0
KSM2 200503Z 15007KT 29/15 A3009 RMK A01 T02870146  RH  042%=      5-min Rain = 0
KSM2 200504Z 15006KT 29/15 A3009 RMK A01 T02870146  RH  042%=      5-min Rain = 0
KSM2 200505Z 15008KT 29/15 A3008 RMK A01 T02870146  RH  042%=      5-min Rain = 0
KSM2 200506Z 15008KT 29/15 A3008 RMK A01 T02870146  RH  042%=      5-min Rain = 0
KSM2 200507Z 16007KT 29/15 A3008 RMK A01 T02870146  RH  042%=      5-min Rain = 0
KSM2 200508Z 16006KT 29/15 A3008 RMK A01 T02860147  RH  042%=      5-min Rain = 0
KSM2 200509Z 16007KT 29/15 A3008 RMK A01 T02860146  RH  043%=      5-min Rain = 0
KSM2 200510Z 15007KT 29/15 A3008 RMK A01 T02860147  RH  043%=      5-min Rain = 0
KSM2 200511Z 15008KT 29/15 A3008 RMK A01 T02850147  RH  043%=      5-min Rain = 0
KSM2 200512Z 15006KT 29/15 A3008 RMK A01 T02850147  RH  043%=      5-min Rain = 0
KSM2 200513Z 16007KT 29/15 A3009 RMK A01 T02850147  RH  043%=      5-min Rain = 0
KSM2 200514Z 15007KT 29/15 A3009 RMK A01 T02850147  RH  043%=      5-min Rain = 0
KSM2 200515Z 15007KT 28/15 A3009 RMK A01 T02840147  RH  043%=      5-min Rain = 0
KSM2 200516Z 15008KT 28/15 A3009 RMK A01 T02840147  RH  043%=      5-min Rain = 0
KSM2 200517Z 15008KT 28/15 A3009 RMK A01 T02840147  RH  043%=      5-min Rain = 0
KSM2 200518Z 15008KT 28/15 A3009 RMK A01 T02840147  RH  043%=      5-min Rain = 0
KSM2 200519Z 15007KT 28/15 A3009 RMK A01 T02840147  RH  043%=      5-min Rain = 0
KSM2 200520Z 15008KT 28/15 A3009 RMK A01 T02830147  RH  043%=      5-min Rain = 0
KSM2 200521Z 15008KT 28/15 A3009 RMK A01 T02830147  RH  043%=      5-min Rain = 0
KSM2 200522Z 15008KT 28/15 A3009 RMK A01 T02830147  RH  044%=      5-min Rain = 0
KSM2 200523Z 15007KT 28/15 A3009 RMK A01 T02820147  RH  044%=      5-min Rain = 0
KSM2 200524Z 15006KT 28/15 A3009 RMK A01 T02820147  RH  044%=      5-min Rain = 0
KSM2 200525Z 16007KT 28/15 A3009 RMK A01 T02810147  RH  044%=      5-min Rain = 0
KSM2 200526Z 14008KT 28/15 A3009 RMK A01 T02810147  RH  044%=      5-min Rain = 0
KSM2 200527Z 15007KT 28/15 A3009 RMK A01 T02810147  RH  044%=      5-min Rain = 0
KSM2 200528Z 15006G11KT 28/15 A3009 RMK A01 T02800147  RH  044%=      5-min Rain = 0
KSM2 200529Z 15008KT 28/15 A3009 RMK A01 T02800147  RH  044%=      5-min Rain = 0
KSM2 200530Z 15008KT 28/15 A3009 RMK A01 T02800147  RH  044%=      5-min Rain = 0
KSM2 200531Z 15008KT 28/15 A3009 RMK A01 T02800147  RH  044%=      5-min Rain = 0
KSM2 200532Z 15006KT 28/15 A3009 RMK A01 T02800147  RH  044%=      5-min Rain = 0
KSM2 200533Z 15006KT 28/15 A3009 RMK A01 T02790147  RH  045%=      5-min Rain = 0
KSM2 200534Z 15006KT 28/15 A3009 RMK A01 T02790148  RH  045%=      5-min Rain = 0
KSM2 200535Z 15006KT 28/15 A3009 RMK A01 T02780148  RH  045%=      5-min Rain = 0
KSM2 200536Z 15006KT 28/15 A3009 RMK A01 T02780148  RH  045%=      5-min Rain = 0
KSM2 200537Z 16007KT 28/15 A3009 RMK A01 T02780147  RH  045%=      5-min Rain = 0
KSM2 200538Z 15006KT 28/15 A3009 RMK A01 T02780148  RH  045%=      5-min Rain = 0
KSM2 200539Z 15008KT 28/15 A3009 RMK A01 T02780148  RH  045%=      5-min Rain = 0
KSM2 200540Z 16007KT 28/15 A3009 RMK A01 T02780148  RH  045%=      5-min Rain = 0
KSM2 200541Z 15009KT 28/15 A3009 RMK A01 T02780148  RH  045%=      5-min Rain = 0
KSM2 200542Z 15009KT 28/15 A3009 RMK A01 T02780148  RH  045%=      5-min Rain = 0
KSM2 200543Z 15008KT 28/15 A3009 RMK A01 T02790148  RH  045%=      5-min Rain = 0
KSM2 200544Z 15008KT 28/15 A3009 RMK A01 T02790148  RH  045%=      5-min Rain = 0
KSM2 200545Z 15008KT 28/15 A3009 RMK A01 T02790148  RH  045%=      5-min Rain = 0
KSM2 200546Z 16007KT 28/15 A3009 RMK A01 T02790148  RH  045%=      5-min Rain = 0
KSM2 200547Z 16007KT 28/15 A3009 RMK A01 T02790149  RH  045%=      5-min Rain = 0
KSM2 200548Z 15007KT 28/15 A3009 RMK A01 T02790149  RH  045%=      5-min Rain = 0
KSM2 200549Z 15005KT 28/15 A3009 RMK A01 T02790149  RH  045%=      5-min Rain = 0
KSM2 200550Z 15006KT 28/15 A3009 RMK A01 T02780149  RH  045%=      5-min Rain = 0
KSM2 200551Z 15007KT 28/15 A3009 RMK A01 T02770149  RH  045%=      5-min Rain = 0
KSM2 200552Z 15008KT 28/15 A3009 RMK A01 T02770149  RH  045%=      5-min Rain = 0
KSM2 200553Z 15008KT 28/15 A3009 RMK A01 T02770149  RH  045%=      5-min Rain = 0
KSM2 200554Z 15008KT 28/15 A3009 RMK A01 T02770149  RH  045%=      5-min Rain = 0
KSM2 200555Z 16008KT 28/15 A3009 RMK A01 T02770149  RH  046%=      5-min Rain = 0
KSM2 200556Z 15006KT 28/15 A3009 RMK A01 T02770150  RH  046%=      5-min Rain = 0
KSM2 200557Z 15008KT 28/15 A3009 RMK A01 T02770150  RH  046%=      5-min Rain = 0
KSM2 200558Z 16007KT 28/15 A3009 RMK A01 T02780150  RH  046%=      5-min Rain = 0
KSM2 200559Z 16008KT 28/15 A3009 RMK A01 T02770150  RH  046%=      5-min Rain = 0
KSM2 200600Z 15008KT 28/15 A3009 RMK A01 T02770150  RH  046%=      5-min Rain = 0
KSM2 200601Z 15007KT 28/15 A3009 RMK A01 T02770150  RH  046%=      5-min Rain = 0
KSM2 200602Z 15008KT 28/15 A3009 RMK A01 T02770150  RH  046%=      5-min Rain = 0
KSM2 200603Z 15008KT 28/15 A3009 RMK A01 T02770150  RH  046%=      5-min Rain = 0
KSM2 200604Z 15008KT 28/15 A3009 RMK A01 T02770150  RH  046%=      5-min Rain = 0
KSM2 200605Z 16006KT 28/15 A3009 RMK A01 T02770151  RH  046%=      5-min Rain = 0
KSM2 200606Z 16007KT 28/15 A3009 RMK A01 T02760150  RH  046%=      5-min Rain = 0
KSM2 200607Z 15007KT 28/15 A3009 RMK A01 T02750151  RH  046%=      5-min Rain = 0
KSM2 200608Z 16007KT 28/15 A3009 RMK A01 T02750151  RH  047%=      5-min Rain = 0
KSM2 200609Z 16008KT 28/15 A3009 RMK A01 T02750151  RH  046%=      5-min Rain = 0
KSM2 200610Z 16007KT 28/15 A3009 RMK A01 T02760151  RH  046%=      5-min Rain = 0
KSM2 200611Z 16008KT 28/15 A3009 RMK A01 T02760151  RH  046%=      5-min Rain = 0
KSM2 200612Z 16009KT 28/15 A3009 RMK A01 T02760151  RH  046%=      5-min Rain = 0
KSM2 200613Z 15006KT 28/15 A3009 RMK A01 T02760151  RH  046%=      5-min Rain = 0
KSM2 200614Z 16008KT 28/15 A3009 RMK A01 T02760151  RH  046%=      5-min Rain = 0
KSM2 200615Z 16006KT 28/15 A3009 RMK A01 T02760151  RH  047%=      5-min Rain = 0
KSM2 200616Z 16006KT 28/15 A3009 RMK A01 T02750151  RH  047%=      5-min Rain = 0
KSM2 200617Z 15007KT 27/15 A3009 RMK A01 T02740151  RH  047%=      5-min Rain = 0
KSM2 200618Z 16007KT 27/15 A3009 RMK A01 T02740151  RH  047%=      5-min Rain = 0
KSM2 200619Z 15006G11KT 27/15 A3009 RMK A01 T02740151  RH  047%=      5-min Rain = 0
KSM2 200620Z 16007KT 27/15 A3009 RMK A01 T02740152  RH  047%=      5-min Rain = 0
KSM2 200621Z 15008KT 27/15 A3009 RMK A01 T02740151  RH  047%=      5-min Rain = 0
KSM2 200622Z 15007KT 27/15 A3009 RMK A01 T02740151  RH  047%=      5-min Rain = 0
KSM2 200623Z 16009KT 27/15 A3009 RMK A01 T02740152  RH  047%=      5-min Rain = 0
KSM2 200624Z 15008KT 27/15 A3009 RMK A01 T02740152  RH  047%=      5-min Rain = 0
KSM2 200625Z 16006KT 27/15 A3009 RMK A01 T02740152  RH  047%=      5-min Rain = 0
KSM2 200626Z 15006KT 27/15 A3009 RMK A01 T02740152  RH  047%=      5-min Rain = 0
KSM2 200627Z 15007KT 27/15 A3009 RMK A01 T02730152  RH  047%=      5-min Rain = 0
KSM2 200628Z 16009KT 27/15 A3009 RMK A01 T02730152  RH  047%=      5-min Rain = 0
KSM2 200629Z 15007KT 27/15 A3009 RMK A01 T02730152  RH  047%=      5-min Rain = 0
KSM2 200630Z 15007KT 27/15 A3009 RMK A01 T02730152  RH  048%=      5-min Rain = 0
KSM2 200631Z 15007KT 27/15 A3009 RMK A01 T02730152  RH  048%=      5-min Rain = 0
KSM2 200632Z 15006KT 27/15 A3009 RMK A01 T02730153  RH  048%=      5-min Rain = 0
KSM2 200633Z 15007KT 27/15 A3009 RMK A01 T02720152  RH  048%=      5-min Rain = 0
KSM2 200634Z 15006KT 27/15 A3009 RMK A01 T02720152  RH  048%=      5-min Rain = 0
KSM2 200635Z 14007KT 27/15 A3009 RMK A01 T02720152  RH  048%=      5-min Rain = 0
KSM2 200636Z 15006KT 27/15 A3009 RMK A01 T02710153  RH  048%=      5-min Rain = 0
KSM2 200637Z 15006KT 27/15 A3009 RMK A01 T02700153  RH  048%=      5-min Rain = 0
KSM2 200638Z 15007KT 27/15 A3009 RMK A01 T02700153  RH  049%=      5-min Rain = 0
KSM2 200639Z 15007KT 27/15 A3009 RMK A01 T02690153  RH  049%=      5-min Rain = 0
KSM2 200640Z 15007KT 27/15 A3009 RMK A01 T02690153  RH  049%=      5-min Rain = 0
KSM2 200641Z 15006KT 27/15 A3009 RMK A01 T02690153  RH  049%=      5-min Rain = 0
KSM2 200642Z 16006KT 27/15 A3009 RMK A01 T02690153  RH  049%=      5-min Rain = 0
KSM2 200643Z 15006KT 27/15 A3009 RMK A01 T02680153  RH  049%=      5-min Rain = 0
KSM2 200644Z 15007KT 27/15 A3009 RMK A01 T02680153  RH  049%=      5-min Rain = 0
KSM2 200645Z 15006KT 27/15 A3009 RMK A01 T02680153  RH  049%=      5-min Rain = 0
KSM2 200646Z 15007KT 27/15 A3009 RMK A01 T02680153  RH  049%=      5-min Rain = 0
KSM2 200647Z 15006KT 27/15 A3009 RMK A01 T02680153  RH  049%=      5-min Rain = 0
KSM2 200648Z 15005KT 27/15 A3009 RMK A01 T02680153  RH  049%=      5-min Rain = 0
KSM2 200649Z 15007KT 27/15 A3009 RMK A01 T02670153  RH  050%=      5-min Rain = 0
KSM2 200650Z 15006KT 27/15 A3009 RMK A01 T02670153  RH  050%=      5-min Rain = 0
KSM2 200651Z 15006KT 27/15 A3009 RMK A01 T02670153  RH  050%=      5-min Rain = 0
KSM2 200652Z 15007KT 27/15 A3009 RMK A01 T02670153  RH  050%=      5-min Rain = 0
KSM2 200653Z 16008KT 27/15 A3009 RMK A01 T02670154  RH  050%=      5-min Rain = 0
KSM2 200654Z 15007KT 27/15 A3009 RMK A01 T02670153  RH  050%=      5-min Rain = 0
KSM2 200655Z 15007KT 27/15 A3009 RMK A01 T02670153  RH  050%=      5-min Rain = 0
KSM2 200656Z 15006KT 27/15 A3009 RMK A01 T02670153  RH  050%=      5-min Rain = 0
KSM2 200657Z 15006KT 27/15 A3009 RMK A01 T02670153  RH  050%=      5-min Rain = 0
KSM2 200658Z 15006KT 27/15 A3009 RMK A01 T02660153  RH  050%=      5-min Rain = 0
KSM2 200659Z 15006KT 27/15 A3009 RMK A01 T02660154  RH  050%=      5-min Rain = 0
KSM2 200700Z 15006KT 27/15 A3009 RMK A01 T02660154  RH  050%=      5-min Rain = 0
KSM2 200701Z 15008KT 27/15 A3009 RMK A01 T02660154  RH  050%=      5-min Rain = 0
KSM2 200702Z 15008KT 27/15 A3009 RMK A01 T02660153  RH  050%=      5-min Rain = 0
KSM2 200703Z 15008KT 27/15 A3009 RMK A01 T02670153  RH  050%=      5-min Rain = 0
KSM2 200704Z 15008KT 27/15 A3009 RMK A01 T02670153  RH  050%=      5-min Rain = 0
KSM2 200705Z 15009KT 27/15 A3009 RMK A01 T02670153  RH  049%=      5-min Rain = 0
KSM2 200706Z 16007KT 27/15 A3009 RMK A01 T02680153  RH  049%=      5-min Rain = 0
KSM2 200707Z 15007KT 27/15 A3009 RMK A01 T02680153  RH  049%=      5-min Rain = 0
KSM2 200708Z 16007KT 27/15 A3009 RMK A01 T02680153  RH  049%=      5-min Rain = 0
KSM2 200709Z 15008KT 27/15 A3009 RMK A01 T02680153  RH  049%=      5-min Rain = 0
KSM2 200710Z 16009KT 27/15 A3009 RMK A01 T02680153  RH  049%=      5-min Rain = 0
KSM2 200711Z 16010KT 27/15 A3009 RMK A01 T02680153  RH  049%=      5-min Rain = 0
KSM2 200712Z 15008KT 27/15 A3009 RMK A01 T02690153  RH  049%=      5-min Rain = 0
KSM2 200713Z 15006KT 27/15 A3009 RMK A01 T02690153  RH  049%=      5-min Rain = 0
KSM2 200714Z 15007KT 27/15 A3009 RMK A01 T02680153  RH  049%=      5-min Rain = 0
KSM2 200715Z 15007KT 27/15 A3009 RMK A01 T02680153  RH  049%=      5-min Rain = 0
KSM2 200716Z 15007KT 27/15 A3009 RMK A01 T02670153  RH  050%=      5-min Rain = 0
KSM2 200717Z 15007KT 27/15 A3009 RMK A01 T02670154  RH  050%=      5-min Rain = 0
KSM2 200718Z 15008KT 27/15 A3009 RMK A01 T02660153  RH  050%=      5-min Rain = 0
KSM2 200719Z 15008KT 27/15 A3009 RMK A01 T02660153  RH  050%=      5-min Rain = 0
KSM2 200720Z 15007KT 27/15 A3009 RMK A01 T02670153  RH  050%=      5-min Rain = 0
KSM2 200721Z 15006KT 27/15 A3009 RMK A01 T02660153  RH  050%=      5-min Rain = 0
KSM2 200722Z 15008KT 27/15 A3009 RMK A01 T02670153  RH  050%=      5-min Rain = 0
KSM2 200723Z 15007KT 27/15 A3009 RMK A01 T02660154  RH  050%=      5-min Rain = 0
KSM2 200724Z 14007KT 27/15 A3009 RMK A01 T02660154  RH  050%=      5-min Rain = 0
KSM2 200725Z 15008KT 27/15 A3009 RMK A01 T02660154  RH  050%=      5-min Rain = 0
KSM2 200726Z 15008KT 27/15 A3009 RMK A01 T02650154  RH  050%=      5-min Rain = 0
KSM2 200727Z 15007KT 27/15 A3009 RMK A01 T02650154  RH  050%=      5-min Rain = 0
KSM2 200728Z 15008KT 27/15 A3009 RMK A01 T02650154  RH  050%=      5-min Rain = 0
KSM2 200729Z 15007KT 27/15 A3009 RMK A01 T02650154  RH  051%=      5-min Rain = 0
KSM2 200730Z 15009KT 26/15 A3009 RMK A01 T02640154  RH  051%=      5-min Rain = 0
KSM2 200731Z 15008KT 26/15 A3009 RMK A01 T02640154  RH  051%=      5-min Rain = 0
KSM2 200732Z 14009KT 26/15 A3009 RMK A01 T02640154  RH  051%=      5-min Rain = 0
KSM2 200733Z 15008KT 26/15 A3009 RMK A01 T02640154  RH  051%=      5-min Rain = 0
KSM2 200734Z 14008KT 26/15 A3009 RMK A01 T02640154  RH  051%=      5-min Rain = 0
KSM2 200735Z 15007KT 26/15 A3009 RMK A01 T02630154  RH  051%=      5-min Rain = 0
KSM2 200736Z 14008KT 26/15 A3009 RMK A01 T02630154  RH  051%=      5-min Rain = 0
KSM2 200737Z 15008KT 26/15 A3009 RMK A01 T02620154  RH  051%=      5-min Rain = 0
KSM2 200738Z 14009KT 26/15 A3009 RMK A01 T02620154  RH  051%=      5-min Rain = 0
KSM2 200739Z 14008KT 26/15 A3009 RMK A01 T02620154  RH  051%=      5-min Rain = 0
KSM2 200740Z 14009KT 26/15 A3009 RMK A01 T02620154  RH  052%=      5-min Rain = 0
KSM2 200741Z 14008KT 26/15 A3009 RMK A01 T02610154  RH  052%=      5-min Rain = 0
KSM2 200742Z 14008KT 26/15 A3009 RMK A01 T02610154  RH  052%=      5-min Rain = 0
KSM2 200743Z 15008KT 26/15 A3008 RMK A01 T02610154  RH  052%=      5-min Rain = 0
KSM2 200744Z 15007KT 26/15 A3008 RMK A01 T02610154  RH  052%=      5-min Rain = 0
KSM2 200745Z 15008KT 26/15 A3008 RMK A01 T02600154  RH  052%=      5-min Rain = 0
KSM2 200746Z 15008KT 26/15 A3008 RMK A01 T02600154  RH  052%=      5-min Rain = 0
KSM2 200747Z 15009KT 26/15 A3008 RMK A01 T02600154  RH  052%=      5-min Rain = 0
KSM2 200748Z 14009KT 26/15 A3008 RMK A01 T02600154  RH  052%=      5-min Rain = 0
KSM2 200749Z 14008KT 26/15 A3008 RMK A01 T02600154  RH  052%=      5-min Rain = 0
KSM2 200750Z 14008KT 26/15 A3008 RMK A01 T02600154  RH  052%=      5-min Rain = 0
KSM2 200751Z 14008KT 26/15 A3008 RMK A01 T02600154  RH  052%=      5-min Rain = 0
KSM2 200752Z 14008KT 26/15 A3008 RMK A01 T02590154  RH  052%=      5-min Rain = 0
KSM2 200753Z 15008KT 26/15 A3008 RMK A01 T02590154  RH  052%=      5-min Rain = 0
KSM2 200754Z 15009KT 26/15 A3008 RMK A01 T02590154  RH  052%=      5-min Rain = 0
KSM2 200755Z 15008KT 26/15 A3008 RMK A01 T02590154  RH  052%=      5-min Rain = 0
KSM2 200756Z 15007KT 26/15 A3008 RMK A01 T02590154  RH  052%=      5-min Rain = 0
KSM2 200757Z 15007KT 26/15 A3008 RMK A01 T02580154  RH  053%=      5-min Rain = 0
KSM2 200758Z 15008KT 26/15 A3008 RMK A01 T02580154  RH  053%=      5-min Rain = 0
KSM2 200759Z 15008KT 26/15 A3008 RMK A01 T02570154  RH  053%=      5-min Rain = 0
KSM2 200800Z 14007KT 26/15 A3008 RMK A01 T02570154  RH  053%=      5-min Rain = 0
KSM2 200801Z 15008KT 26/15 A3008 RMK A01 T02570154  RH  053%=      5-min Rain = 0
KSM2 200802Z 15008KT 26/15 A3008 RMK A01 T02570154  RH  053%=      5-min Rain = 0
KSM2 200803Z 15009KT 26/15 A3008 RMK A01 T02570154  RH  053%=      5-min Rain = 0
KSM2 200804Z 15008KT 26/15 A3008 RMK A01 T02570154  RH  053%=      5-min Rain = 0
KSM2 200805Z 14008KT 26/15 A3008 RMK A01 T02570154  RH  053%=      5-min Rain = 0
KSM2 200806Z 15008KT 26/15 A3008 RMK A01 T02560154  RH  053%=      5-min Rain = 0
KSM2 200807Z 15009KT 26/15 A3008 RMK A01 T02570154  RH  053%=      5-min Rain = 0
KSM2 200808Z 15009KT 26/15 A3008 RMK A01 T02560154  RH  053%=      5-min Rain = 0
KSM2 200809Z 15009KT 26/15 A3008 RMK A01 T02560154  RH  053%=      5-min Rain = 0
KSM2 200810Z 15008KT 26/15 A3009 RMK A01 T02560154  RH  053%=      5-min Rain = 0
KSM2 200811Z 15008KT 26/15 A3009 RMK A01 T02560154  RH  053%=      5-min Rain = 0
KSM2 200812Z 15009KT 26/15 A3009 RMK A01 T02570154  RH  053%=      5-min Rain = 0
KSM2 200813Z 15008KT 26/15 A3009 RMK A01 T02560154  RH  053%=      5-min Rain = 0
KSM2 200814Z 15008KT 26/15 A3009 RMK A01 T02560154  RH  053%=      5-min Rain = 0
KSM2 200815Z 15008KT 26/15 A3009 RMK A01 T02570154  RH  053%=      5-min Rain = 0
KSM2 200816Z 15010KT 26/15 A3009 RMK A01 T02560154  RH  053%=      5-min Rain = 0
KSM2 200817Z 15008KT 26/15 A3009 RMK A01 T02570154  RH  053%=      5-min Rain = 0
KSM2 200818Z 16008KT 26/15 A3009 RMK A01 T02570154  RH  053%=      5-min Rain = 0
KSM2 200819Z 15010KT 26/15 A3009 RMK A01 T02570154  RH  053%=      5-min Rain = 0
KSM2 200820Z 16011KT 26/16 A3009 RMK A01 T02570155  RH  053%=      5-min Rain = 0
KSM2 200821Z 15009KT 26/15 A3009 RMK A01 T02570154  RH  053%=      5-min Rain = 0
KSM2 200822Z 15009KT 26/15 A3009 RMK A01 T02570154  RH  053%=      5-min Rain = 0
KSM2 200823Z 15008KT 26/16 A3009 RMK A01 T02570155  RH  053%=      5-min Rain = 0
KSM2 200824Z 15008KT 26/15 A3009 RMK A01 T02570154  RH  053%=      5-min Rain = 0
KSM2 200825Z 15009KT 26/16 A3009 RMK A01 T02570155  RH  053%=      5-min Rain = 0
KSM2 200826Z 15009KT 26/15 A3009 RMK A01 T02560154  RH  053%=      5-min Rain = 0
KSM2 200827Z 16009KT 26/16 A3009 RMK A01 T02570155  RH  053%=      5-min Rain = 0
KSM2 200828Z 15007KT 26/16 A3009 RMK A01 T02560155  RH  053%=      5-min Rain = 0
KSM2 200829Z 16008KT 26/15 A3009 RMK A01 T02560154  RH  053%=      5-min Rain = 0
KSM2 200830Z 16006KT 26/15 A3009 RMK A01 T02550154  RH  054%=      5-min Rain = 0
KSM2 200831Z 15007KT 26/15 A3009 RMK A01 T02550154  RH  054%=      5-min Rain = 0
KSM2 200832Z 16007KT 26/15 A3009 RMK A01 T02550154  RH  054%=      5-min Rain = 0
KSM2 200833Z 17006KT 26/16 A3009 RMK A01 T02550155  RH  054%=      5-min Rain = 0
KSM2 200834Z 16009KT 26/16 A3009 RMK A01 T02550155  RH  054%=      5-min Rain = 0
KSM2 200835Z 16007KT 25/15 A3009 RMK A01 T02540154  RH  054%=      5-min Rain = 0
KSM2 200836Z 17007KT 25/15 A3009 RMK A01 T02540154  RH  054%=      5-min Rain = 0
KSM2 200837Z 16006KT 25/15 A3009 RMK A01 T02540154  RH  054%=      5-min Rain = 0
KSM2 200838Z 17005KT 25/16 A3009 RMK A01 T02540155  RH  054%=      5-min Rain = 0
KSM2 200839Z 17006KT 25/15 A3009 RMK A01 T02540154  RH  054%=      5-min Rain = 0
KSM2 200840Z 16004KT 25/15 A3009 RMK A01 T02530154  RH  054%=      5-min Rain = 0
KSM2 200841Z 17006KT 25/16 A3009 RMK A01 T02530155  RH  054%=      5-min Rain = 0
KSM2 200842Z 17006KT 25/16 A3009 RMK A01 T02520155  RH  055%=      5-min Rain = 0
KSM2 200843Z 17005KT 25/16 A3009 RMK A01 T02520155  RH  055%=      5-min Rain = 0
KSM2 200844Z 17005KT 25/16 A3009 RMK A01 T02520155  RH  055%=      5-min Rain = 0
KSM2 200845Z 17006KT 25/16 A3009 RMK A01 T02520155  RH  055%=      5-min Rain = 0
KSM2 200846Z 18006KT 25/16 A3009 RMK A01 T02520155  RH  055%=      5-min Rain = 0
KSM2 200847Z 18005KT 25/16 A3009 RMK A01 T02520155  RH  055%=      5-min Rain = 0
KSM2 200848Z 17005KT 25/16 A3009 RMK A01 T02510155  RH  055%=      5-min Rain = 0
KSM2 200849Z 17005KT 25/16 A3009 RMK A01 T02500155  RH  055%=      5-min Rain = 0
KSM2 200850Z 17006KT 25/16 A3009 RMK A01 T02500155  RH  056%=      5-min Rain = 0
KSM2 200851Z 18006KT 25/16 A3009 RMK A01 T02490155  RH  056%=      5-min Rain = 0
KSM2 200852Z 17005KT 25/15 A3009 RMK A01 T02490154  RH  056%=      5-min Rain = 0
KSM2 200853Z 17006KT 25/16 A3009 RMK A01 T02500155  RH  056%=      5-min Rain = 0
KSM2 200854Z 17005KT 25/15 A3009 RMK A01 T02500154  RH  055%=      5-min Rain = 0
KSM2 200855Z 18005KT 25/16 A3009 RMK A01 T02500155  RH  055%=      5-min Rain = 0
KSM2 200856Z 16005KT 25/16 A3009 RMK A01 T02500155  RH  056%=      5-min Rain = 0
KSM2 200857Z 16006KT 25/16 A3009 RMK A01 T02500155  RH  055%=      5-min Rain = 0
KSM2 200858Z 17006KT 25/16 A3009 RMK A01 T02500155  RH  056%=      5-min Rain = 0
KSM2 200859Z 17006KT 25/16 A3009 RMK A01 T02500155  RH  056%=      5-min Rain = 0
KSM2 200900Z 17006KT 25/15 A3009 RMK A01 T02490154  RH  056%=      5-min Rain = 0
KSM2 200901Z 17006KT 25/16 A3009 RMK A01 T02500155  RH  056%=      5-min Rain = 0
KSM2 200902Z 17007KT 25/16 A3009 RMK A01 T02500155  RH  056%=      5-min Rain = 0
KSM2 200903Z 17007KT 25/16 A3009 RMK A01 T02500155  RH  055%=      5-min Rain = 0
KSM2 200904Z 16007KT 25/15 A3009 RMK A01 T02500154  RH  055%=      5-min Rain = 0
KSM2 200905Z 16007KT 25/16 A3009 RMK A01 T02500155  RH  055%=      5-min Rain = 0
KSM2 200906Z 17007KT 25/15 A3009 RMK A01 T02500154  RH  055%=      5-min Rain = 0
KSM2 200907Z 16007KT 25/15 A3009 RMK A01 T02490154  RH  055%=      5-min Rain = 0
KSM2 200908Z 16008KT 25/15 A3009 RMK A01 T02500154  RH  055%=      5-min Rain = 0
KSM2 200909Z 16008KT 25/15 A3009 RMK A01 T02500154  RH  055%=      5-min Rain = 0
KSM2 200910Z 16009KT 25/15 A3009 RMK A01 T02500154  RH  055%=      5-min Rain = 0
KSM2 200911Z 16008KT 25/15 A3009 RMK A01 T02500154  RH  055%=      5-min Rain = 0
KSM2 200912Z 16009KT 25/15 A3009 RMK A01 T02500154  RH  055%=      5-min Rain = 0
KSM2 200913Z 17008G13KT 25/15 A3009 RMK A01 T02510154  RH  055%=      5-min Rain = 0
KSM2 200914Z 16007KT 25/15 A3009 RMK A01 T02500154  RH  055%=      5-min Rain = 0
KSM2 200915Z 16009KT 25/15 A3009 RMK A01 T02500154  RH  055%=      5-min Rain = 0
KSM2 200916Z 16010KT 25/15 A3009 RMK A01 T02500153  RH  055%=      5-min Rain = 0
KSM2 200917Z 16008KT 25/15 A3009 RMK A01 T02500153  RH  055%=      5-min Rain = 0
KSM2 200918Z 16008KT 25/15 A3009 RMK A01 T02510153  RH  055%=      5-min Rain = 0
KSM2 200919Z 16009KT 25/15 A301 RMK A01 T02510153  RH  055%=      5-min Rain = 0
KSM2 200920Z 16008KT 25/15 A301 RMK A01 T02510153  RH  055%=      5-min Rain = 0
KSM2 200921Z 16009KT 25/15 A3009 RMK A01 T02510153  RH  055%=      5-min Rain = 0
KSM2 200922Z 17008KT 25/15 A301 RMK A01 T02510153  RH  054%=      5-min Rain = 0
KSM2 200923Z 16009G14KT 25/15 A3009 RMK A01 T02510153  RH  054%=      5-min Rain = 0
KSM2 200924Z 16010KT 25/15 A3009 RMK A01 T02510152  RH  054%=      5-min Rain = 0
KSM2 200925Z 16009KT 25/15 A3009 RMK A01 T02510152  RH  054%=      5-min Rain = 0
KSM2 200926Z 16009KT 25/15 A3009 RMK A01 T02510152  RH  054%=      5-min Rain = 0
KSM2 200927Z 16009KT 25/15 A3009 RMK A01 T02510152  RH  054%=      5-min Rain = 0
KSM2 200928Z 17009KT 25/15 A3009 RMK A01 T02510152  RH  054%=      5-min Rain = 0
KSM2 200929Z 16009KT 25/15 A3009 RMK A01 T02510151  RH  054%=      5-min Rain = 0
KSM2 200930Z 17007KT 25/15 A3009 RMK A01 T02520151  RH  054%=      5-min Rain = 0
KSM2 200931Z 17008KT 25/15 A3009 RMK A01 T02520152  RH  054%=      5-min Rain = 0
KSM2 200932Z 16008KT 25/15 A3009 RMK A01 T02520151  RH  054%=      5-min Rain = 0
KSM2 200933Z 17007KT 25/15 A3009 RMK A01 T02520151  RH  054%=      5-min Rain = 0
KSM2 200934Z 17008KT 25/15 A3009 RMK A01 T02520151  RH  054%=      5-min Rain = 0
KSM2 200935Z 16007KT 25/15 A3009 RMK A01 T02520151  RH  053%=      5-min Rain = 0
KSM2 200936Z 17009KT 25/15 A3009 RMK A01 T02520150  RH  053%=      5-min Rain = 0
KSM2 200937Z 17008KT 25/15 A3009 RMK A01 T02520150  RH  053%=      5-min Rain = 0
KSM2 200938Z 17009KT 25/15 A3009 RMK A01 T02530150  RH  053%=      5-min Rain = 0
KSM2 200939Z 18009KT 25/15 A3009 RMK A01 T02530149  RH  053%=      5-min Rain = 0
KSM2 200940Z 17008KT 25/15 A3009 RMK A01 T02530149  RH  052%=      5-min Rain = 0
KSM2 200941Z 18008KT 25/15 A3009 RMK A01 T02530149  RH  052%=      5-min Rain = 0
KSM2 200942Z 18007KT 25/15 A3009 RMK A01 T02530148  RH  052%=      5-min Rain = 0
KSM2 200943Z 18007KT 25/15 A3009 RMK A01 T02540149  RH  052%=      5-min Rain = 0
KSM2 200944Z 18008KT 25/15 A3009 RMK A01 T02530148  RH  052%=      5-min Rain = 0
KSM2 200945Z 18008KT 25/15 A3009 RMK A01 T02530148  RH  052%=      5-min Rain = 0
KSM2 200946Z 18006KT 25/15 A3009 RMK A01 T02530148  RH  052%=      5-min Rain = 0
KSM2 200947Z 19007KT 25/15 A3009 RMK A01 T02530148  RH  052%=      5-min Rain = 0
KSM2 200948Z 19007KT 25/15 A3009 RMK A01 T02520148  RH  052%=      5-min Rain = 0
KSM2 200949Z 19006KT 25/15 A3009 RMK A01 T02510148  RH  053%=      5-min Rain = 0
KSM2 200950Z 19006KT 25/15 A3009 RMK A01 T02510148  RH  053%=      5-min Rain = 0
KSM2 200951Z 19006KT 25/15 A3009 RMK A01 T02500148  RH  053%=      5-min Rain = 0
KSM2 200952Z 19007KT 25/15 A3009 RMK A01 T02500148  RH  053%=      5-min Rain = 0
KSM2 200953Z 19007KT 25/15 A3009 RMK A01 T02500148  RH  053%=      5-min Rain = 0
KSM2 200954Z 19008KT 25/15 A301 RMK A01 T02490148  RH  053%=      5-min Rain = 0
KSM2 200955Z 20008KT 25/15 A301 RMK A01 T02490147  RH  053%=      5-min Rain = 0
KSM2 200956Z 20008KT 25/15 A301 RMK A01 T02500148  RH  053%=      5-min Rain = 0
KSM2 200957Z 19007KT 25/15 A301 RMK A01 T02500148  RH  053%=      5-min Rain = 0
KSM2 200958Z 20006KT 25/15 A301 RMK A01 T02500148  RH  053%=      5-min Rain = 0
KSM2 200959Z 19006KT 25/15 A301 RMK A01 T02490148  RH  053%=      5-min Rain = 0
KSM2 201000Z 19007KT 25/15 A301 RMK A01 T02480148  RH  054%=      5-min Rain = 0
KSM2 201001Z 19007KT 25/15 A301 RMK A01 T02470148  RH  054%=      5-min Rain = 0
KSM2 201002Z 19007KT 25/15 A301 RMK A01 T02470148  RH  054%=      5-min Rain = 0
KSM2 201003Z 19006KT 25/15 A301 RMK A01 T02470147  RH  054%=      5-min Rain = 0
KSM2 201004Z 19006KT 25/15 A301 RMK A01 T02470148  RH  054%=      5-min Rain = 0
KSM2 201005Z 19006KT 25/15 A301 RMK A01 T02470147  RH  054%=      5-min Rain = 0
KSM2 201006Z 19007KT 25/15 A301 RMK A01 T02470148  RH  054%=      5-min Rain = 0
KSM2 201007Z 19007KT 25/15 A301 RMK A01 T02470148  RH  054%=      5-min Rain = 0
KSM2 201008Z 19006KT 25/15 A301 RMK A01 T02470148  RH  054%=      5-min Rain = 0
KSM2 201009Z 19006KT 25/15 A301 RMK A01 T02470148  RH  054%=      5-min Rain = 0
KSM2 201010Z 19006KT 25/15 A301 RMK A01 T02460148  RH  054%=      5-min Rain = 0
KSM2 201011Z 19006KT 25/15 A301 RMK A01 T02450148  RH  054%=      5-min Rain = 0
KSM2 201012Z 19007KT 25/15 A301 RMK A01 T02450148  RH  055%=      5-min Rain = 0
KSM2 201013Z 19006KT 25/15 A301 RMK A01 T02450148  RH  055%=      5-min Rain = 0
KSM2 201014Z 20005KT 24/15 A301 RMK A01 T02440148  RH  055%=      5-min Rain = 0
KSM2 201015Z 20006KT 24/15 A301 RMK A01 T02430148  RH  055%=      5-min Rain = 0
KSM2 201016Z 20005KT 24/15 A301 RMK A01 T02430148  RH  055%=      5-min Rain = 0
KSM2 201017Z 21006KT 24/15 A301 RMK A01 T02430148  RH  055%=      5-min Rain = 0
KSM2 201018Z 21006KT 24/15 A301 RMK A01 T02430148  RH  055%=      5-min Rain = 0
KSM2 201019Z 22006KT 24/15 A301 RMK A01 T02430147  RH  055%=      5-min Rain = 0
KSM2 201020Z 22006KT 24/15 A301 RMK A01 T02420147  RH  055%=      5-min Rain = 0
KSM2 201021Z 22006KT 24/15 A301 RMK A01 T02420147  RH  055%=      5-min Rain = 0
KSM2 201022Z 22006KT 24/15 A301 RMK A01 T02420147  RH  055%=      5-min Rain = 0
KSM2 201023Z 22006KT 24/15 A301 RMK A01 T02420147  RH  055%=      5-min Rain = 0
KSM2 201024Z 21006KT 24/15 A301 RMK A01 T02420148  RH  056%=      5-min Rain = 0
KSM2 201025Z 21006KT 24/15 A301 RMK A01 T02410148  RH  056%=      5-min Rain = 0
KSM2 201026Z 21006KT 24/15 A301 RMK A01 T02400148  RH  056%=      5-min Rain = 0
KSM2 201027Z 21006KT 24/15 A301 RMK A01 T02400148  RH  056%=      5-min Rain = 0
KSM2 201028Z 21006KT 24/15 A301 RMK A01 T02400148  RH  056%=      5-min Rain = 0
KSM2 201029Z 21006KT 24/15 A301 RMK A01 T02400148  RH  056%=      5-min Rain = 0
KSM2 201030Z 21006KT 24/15 A301 RMK A01 T02390148  RH  057%=      5-min Rain = 0
KSM2 201031Z 21005KT 24/15 A301 RMK A01 T02380148  RH  057%=      5-min Rain = 0
KSM2 201032Z 21005KT 24/15 A301 RMK A01 T02380148  RH  057%=      5-min Rain = 0
KSM2 201033Z 21006KT 24/15 A301 RMK A01 T02380148  RH  057%=      5-min Rain = 0
KSM2 201034Z 20005KT 24/15 A301 RMK A01 T02380148  RH  057%=      5-min Rain = 0
KSM2 201035Z 20005KT 24/15 A301 RMK A01 T02380148  RH  057%=      5-min Rain = 0
KSM2 201036Z 20005KT 24/15 A301 RMK A01 T02370148  RH  057%=      5-min Rain = 0
KSM2 201037Z 20005KT 24/15 A3011 RMK A01 T02370148  RH  057%=      5-min Rain = 0
KSM2 201038Z 20005KT 24/15 A3011 RMK A01 T02360148  RH  058%=      5-min Rain = 0
KSM2 201039Z 20005KT 24/15 A3011 RMK A01 T02350148  RH  058%=      5-min Rain = 0
KSM2 201040Z 21005KT 24/15 A3011 RMK A01 T02350148  RH  058%=      5-min Rain = 0
KSM2 201041Z 21005KT 23/15 A3011 RMK A01 T02340148  RH  058%=      5-min Rain = 0
KSM2 201042Z 21005KT 23/15 A3011 RMK A01 T02340148  RH  058%=      5-min Rain = 0
KSM2 201043Z 21005KT 23/15 A3011 RMK A01 T02330148  RH  059%=      5-min Rain = 0
KSM2 201044Z 22005KT 23/15 A3011 RMK A01 T02330148  RH  059%=      5-min Rain = 0
KSM2 201045Z 22004KT 23/15 A3011 RMK A01 T02330147  RH  059%=      5-min Rain = 0
KSM2 201046Z 22004KT 23/15 A3011 RMK A01 T02320147  RH  059%=      5-min Rain = 0
KSM2 201047Z 22004KT 23/15 A3011 RMK A01 T02320147  RH  059%=      5-min Rain = 0
KSM2 201048Z 23004KT 23/15 A3011 RMK A01 T02330147  RH  058%=      5-min Rain = 0
KSM2 201049Z 23004KT 23/15 A3011 RMK A01 T02330146  RH  058%=      5-min Rain = 0
KSM2 201050Z 24003KT 23/15 A3011 RMK A01 T02330146  RH  058%=      5-min Rain = 0
KSM2 201051Z 25003KT 23/15 A3011 RMK A01 T02320145  RH  058%=      5-min Rain = 0
KSM2 201052Z 25004KT 23/15 A3011 RMK A01 T02310145  RH  058%=      5-min Rain = 0
KSM2 201053Z 26003KT 23/14 A3011 RMK A01 T02300144  RH  059%=      5-min Rain = 0
KSM2 201054Z 28003KT 23/14 A3011 RMK A01 T02280143  RH  059%=      5-min Rain = 0
KSM2 201055Z 29004KT 23/14 A3011 RMK A01 T02250143  RH  060%=      5-min Rain = 0
KSM2 201056Z 29004KT 22/14 A3011 RMK A01 T02230143  RH  060%=      5-min Rain = 0
KSM2 201057Z 28004KT 22/14 A3011 RMK A01 T02210142  RH  061%=      5-min Rain = 0
KSM2 201058Z 28004KT 22/14 A3011 RMK A01 T02190141  RH  061%=      5-min Rain = 0
KSM2 201059Z 28004KT 22/14 A3011 RMK A01 T02180141  RH  062%=      5-min Rain = 0
KSM2 201100Z 28004KT 22/14 A3011 RMK A01 T02170141  RH  062%=      5-min Rain = 0
KSM2 201101Z 27005KT 22/14 A3011 RMK A01 T02170141  RH  062%=      5-min Rain = 0
KSM2 201102Z 26005KT 22/14 A3011 RMK A01 T02160141  RH  062%=      5-min Rain = 0
KSM2 201103Z 26004KT 22/14 A3011 RMK A01 T02160141  RH  062%=      5-min Rain = 0
KSM2 201104Z 25004KT 22/14 A3011 RMK A01 T02160142  RH  063%=      5-min Rain = 0
KSM2 201105Z 25004KT 22/14 A3011 RMK A01 T02170143  RH  063%=      5-min Rain = 0
KSM2 201106Z 25004KT 22/14 A3011 RMK A01 T02170143  RH  063%=      5-min Rain = 0
KSM2 201107Z 24004KT 22/14 A3011 RMK A01 T02180143  RH  062%=      5-min Rain = 0
KSM2 201108Z 24004KT 22/14 A3011 RMK A01 T02170142  RH  062%=      5-min Rain = 0
KSM2 201109Z 24004KT 22/14 A3011 RMK A01 T02170143  RH  063%=      5-min Rain = 0
KSM2 201110Z 24004KT 22/14 A3011 RMK A01 T02180143  RH  063%=      5-min Rain = 0
KSM2 201111Z 23005KT 22/14 A3011 RMK A01 T02180143  RH  062%=      5-min Rain = 0
KSM2 201112Z 23004KT 22/14 A3011 RMK A01 T02200144  RH  062%=      5-min Rain = 0
KSM2 201113Z 24004KT 22/15 A3011 RMK A01 T02200145  RH  062%=      5-min Rain = 0
KSM2 201114Z 24004KT 22/14 A3011 RMK A01 T02210144  RH  062%=      5-min Rain = 0
KSM2 201115Z 24004KT 22/14 A3011 RMK A01 T02210144  RH  062%=      5-min Rain = 0
KSM2 201116Z 24004KT 22/14 A3011 RMK A01 T02210144  RH  062%=      5-min Rain = 0
KSM2 201117Z 24004KT 22/14 A3011 RMK A01 T02210144  RH  062%=      5-min Rain = 0
KSM2 201118Z 24004KT 22/14 A3011 RMK A01 T02210144  RH  062%=      5-min Rain = 0
KSM2 201119Z 24004KT 22/15 A3011 RMK A01 T02210145  RH  062%=      5-min Rain = 0
KSM2 201120Z 23005KT 22/14 A3011 RMK A01 T02200144  RH  062%=      5-min Rain = 0
KSM2 201121Z 23005KT 22/14 A3011 RMK A01 T02210144  RH  062%=      5-min Rain = 0
KSM2 201122Z 23005KT 22/14 A3011 RMK A01 T02200144  RH  062%=      5-min Rain = 0
KSM2 201123Z 23004KT 22/14 A3011 RMK A01 T02200144  RH  062%=      5-min Rain = 0
KSM2 201124Z 23004KT 22/14 A3011 RMK A01 T02210144  RH  062%=      5-min Rain = 0
KSM2 201125Z 22005KT 22/15 A3011 RMK A01 T02210145  RH  062%=      5-min Rain = 0
KSM2 201126Z 22004KT 22/15 A3011 RMK A01 T02210145  RH  062%=      5-min Rain = 0
KSM2 201127Z 22004KT 22/15 A3011 RMK A01 T02220145  RH  062%=      5-min Rain = 0
KSM2 201128Z 22004KT 22/15 A3011 RMK A01 T02230146  RH  062%=      5-min Rain = 0
KSM2 201129Z 22004KT 22/15 A3011 RMK A01 T02230146  RH  061%=      5-min Rain = 0
KSM2 201130Z 22003KT 22/15 A3011 RMK A01 T02240146  RH  061%=      5-min Rain = 0
KSM2 201131Z 22003KT 22/15 A3011 RMK A01 T02240146  RH  061%=      5-min Rain = 0
KSM2 201132Z 22003KT 22/15 A3011 RMK A01 T02230146  RH  061%=      5-min Rain = 0
KSM2 201133Z 22003KT 22/15 A3012 RMK A01 T02230146  RH  061%=      5-min Rain = 0
KSM2 201134Z 23003KT 22/15 A3012 RMK A01 T02230145  RH  061%=      5-min Rain = 0
KSM2 201135Z 23003KT 22/15 A3012 RMK A01 T02230145  RH  061%=      5-min Rain = 0
KSM2 201136Z 23003KT 22/15 A3012 RMK A01 T02220145  RH  061%=      5-min Rain = 0
KSM2 201137Z 23003KT 22/14 A3012 RMK A01 T02210144  RH  062%=      5-min Rain = 0
KSM2 201138Z 23003KT 22/14 A3012 RMK A01 T02210143  RH  062%=      5-min Rain = 0
KSM2 201139Z 23002KT 22/14 A3012 RMK A01 T02200143  RH  062%=      5-min Rain = 0
KSM2 201140Z 24003KT 22/14 A3012 RMK A01 T02200144  RH  062%=      5-min Rain = 0
KSM2 201141Z 24002KT 22/14 A3012 RMK A01 T02200144  RH  062%=      5-min Rain = 0
KSM2 201142Z 24002KT 22/14 A3012 RMK A01 T02190142  RH  061%=      5-min Rain = 0
KSM2 201143Z 24002KT 22/14 A3012 RMK A01 T02180140  RH  061%=      5-min Rain = 0
KSM2 201144Z 24002KT 22/14 A3012 RMK A01 T02160141  RH  062%=      5-min Rain = 0
KSM2 201145Z 24002KT 22/14 A3012 RMK A01 T02150141  RH  063%=      5-min Rain = 0
KSM2 201146Z 24002KT 21/14 A3012 RMK A01 T02140142  RH  063%=      5-min Rain = 0
KSM2 201147Z 24001KT 21/14 A3012 RMK A01 T02140142  RH  064%=      5-min Rain = 0
KSM2 201148Z 24001KT 21/14 A3012 RMK A01 T02130142  RH  064%=      5-min Rain = 0
KSM2 201149Z 24001KT 21/14 A3012 RMK A01 T02130142  RH  064%=      5-min Rain = 0
KSM2 201150Z 24002KT 21/14 A3012 RMK A01 T02130143  RH  064%=      5-min Rain = 0
KSM2 201151Z 23002KT 21/14 A3012 RMK A01 T02130143  RH  064%=      5-min Rain = 0
KSM2 201152Z 22002KT 21/14 A3012 RMK A01 T02130143  RH  064%=      5-min Rain = 0
KSM2 201153Z 21002KT 21/14 A3012 RMK A01 T02130143  RH  064%=      5-min Rain = 0
KSM2 201154Z 21002KT 21/14 A3012 RMK A01 T02130142  RH  064%=      5-min Rain = 0
KSM2 201155Z 21003KT 21/14 A3012 RMK A01 T02130143  RH  064%=      5-min Rain = 0
KSM2 201156Z 20003KT 21/14 A3012 RMK A01 T02130143  RH  064%=      5-min Rain = 0
KSM2 201157Z 20003KT 22/14 A3012 RMK A01 T02150144  RH  064%=      5-min Rain = 0
KSM2 201158Z 20003KT 22/14 A3012 RMK A01 T02160144  RH  063%=      5-min Rain = 0
KSM2 201159Z 20004KT 22/14 A3012 RMK A01 T02170144  RH  063%=      5-min Rain = 0
KSM2 201200Z 20004KT 22/14 A3012 RMK A01 T02180144  RH  063%=      5-min Rain = 0
KSM2 201201Z 21004KT 22/14 A3012 RMK A01 T02180144  RH  063%=      5-min Rain = 0
KSM2 201202Z 21004KT 22/15 A3012 RMK A01 T02190145  RH  063%=      5-min Rain = 0
KSM2 201203Z 21004KT 22/14 A3012 RMK A01 T02190144  RH  062%=      5-min Rain = 0
KSM2 201204Z 21004KT 22/14 A3012 RMK A01 T02190144  RH  062%=      5-min Rain = 0
KSM2 201205Z 21004KT 22/14 A3012 RMK A01 T02190144  RH  062%=      5-min Rain = 0
KSM2 201206Z 21004KT 22/14 A3012 RMK A01 T02190144  RH  062%=      5-min Rain = 0
KSM2 201207Z 21004KT 22/14 A3012 RMK A01 T02190144  RH  062%=      5-min Rain = 0
KSM2 201208Z 21004KT 22/14 A3012 RMK A01 T02190143  RH  062%=      5-min Rain = 0
KSM2 201209Z 21004KT 22/14 A3012 RMK A01 T02190143  RH  062%=      5-min Rain = 0
KSM2 201210Z 21004KT 22/14 A3012 RMK A01 T02190144  RH  062%=      5-min Rain = 0
KSM2 201211Z 22004KT 22/14 A3012 RMK A01 T02190143  RH  062%=      5-min Rain = 0
KSM2 201212Z 22004KT 22/14 A3012 RMK A01 T02180143  RH  062%=      5-min Rain = 0
KSM2 201213Z 22005KT 22/14 A3012 RMK A01 T02180143  RH  062%=      5-min Rain = 0
KSM2 201214Z 21005KT 22/14 A3012 RMK A01 T02190143  RH  062%=      5-min Rain = 0
KSM2 201215Z 21005KT 22/14 A3012 RMK A01 T02190143  RH  062%=      5-min Rain = 0
KSM2 201216Z 22004KT 22/14 A3012 RMK A01 T02200143  RH  062%=      5-min Rain = 0
KSM2 201217Z 21004KT 22/14 A3012 RMK A01 T02200143  RH  062%=      5-min Rain = 0
KSM2 201218Z 22004KT 22/14 A3013 RMK A01 T02200143  RH  062%=      5-min Rain = 0
KSM2 201219Z 21004KT 22/14 A3013 RMK A01 T02200143  RH  062%=      5-min Rain = 0
KSM2 201220Z 22003KT 22/14 A3013 RMK A01 T02200143  RH  062%=      5-min Rain = 0
KSM2 201221Z 22003KT 22/14 A3013 RMK A01 T02200143  RH  062%=      5-min Rain = 0
KSM2 201222Z 22003KT 22/14 A3013 RMK A01 T02190142  RH  062%=      5-min Rain = 0
KSM2 201223Z 22003KT 22/14 A3013 RMK A01 T02190142  RH  062%=      5-min Rain = 0
KSM2 201224Z 22003KT 22/14 A3013 RMK A01 T02180142  RH  062%=      5-min Rain = 0
KSM2 201225Z 22003KT 22/14 A3013 RMK A01 T02180141  RH  062%=      5-min Rain = 0
KSM2 201226Z 22003KT 22/14 A3013 RMK A01 T02170141  RH  062%=      5-min Rain = 0
KSM2 201227Z 22003KT 22/14 A3013 RMK A01 T02170141  RH  062%=      5-min Rain = 0
KSM2 201228Z 22003KT 22/14 A3013 RMK A01 T02160140  RH  062%=      5-min Rain = 0
KSM2 201229Z 22003KT 22/14 A3013 RMK A01 T02160141  RH  062%=      5-min Rain = 0
KSM2 201230Z 22002KT 22/14 A3013 RMK A01 T02150141  RH  063%=      5-min Rain = 0
KSM2 201231Z 22003KT 22/14 A3013 RMK A01 T02150142  RH  063%=      5-min Rain = 0
KSM2 201232Z 22003KT 21/14 A3013 RMK A01 T02140141  RH  063%=      5-min Rain = 0
KSM2 201233Z 22003KT 21/14 A3013 RMK A01 T02140142  RH  063%=      5-min Rain = 0
KSM2 201234Z 22003KT 21/14 A3013 RMK A01 T02130141  RH  063%=      5-min Rain = 0
KSM2 201235Z 22003KT 21/14 A3013 RMK A01 T02130140  RH  063%=      5-min Rain = 0
KSM2 201236Z 22003KT 21/14 A3013 RMK A01 T02120140  RH  063%=      5-min Rain = 0
KSM2 201237Z 22003KT 21/14 A3013 RMK A01 T02120140  RH  064%=      5-min Rain = 0
KSM2 201238Z 21003KT 21/14 A3013 RMK A01 T02120141  RH  064%=      5-min Rain = 0
KSM2 201239Z 21003KT 21/14 A3013 RMK A01 T02120141  RH  064%=      5-min Rain = 0
KSM2 201240Z 20003KT 21/14 A3013 RMK A01 T02120141  RH  064%=      5-min Rain = 0
KSM2 201241Z 20003KT 21/14 A3014 RMK A01 T02120142  RH  064%=      5-min Rain = 0
KSM2 201242Z 20004KT 21/14 A3014 RMK A01 T02130144  RH  064%=      5-min Rain = 0
KSM2 201243Z 21004KT 22/15 A3014 RMK A01 T02150145  RH  064%=      5-min Rain = 0
KSM2 201244Z 20003KT 22/14 A3014 RMK A01 T02170144  RH  063%=      5-min Rain = 0
KSM2 201245Z 21003KT 22/14 A3014 RMK A01 T02180144  RH  063%=      5-min Rain = 0
KSM2 201246Z 21004KT 22/14 A3014 RMK A01 T02190144  RH  062%=      5-min Rain = 0
KSM2 201247Z 20004KT 22/14 A3014 RMK A01 T02200144  RH  062%=      5-min Rain = 0
KSM2 201248Z 21004KT 22/14 A3014 RMK A01 T02200144  RH  062%=      5-min Rain = 0
KSM2 201249Z 21004KT 22/14 A3014 RMK A01 T02200143  RH  062%=      5-min Rain = 0
KSM2 201250Z 21004KT 22/14 A3014 RMK A01 T02200143  RH  062%=      5-min Rain = 0
KSM2 201251Z 21003KT 22/14 A3014 RMK A01 T02200144  RH  062%=      5-min Rain = 0
KSM2 201252Z 22003KT 22/14 A3014 RMK A01 T02200144  RH  062%=      5-min Rain = 0
KSM2 201253Z 22003KT 22/15 A3014 RMK A01 T02210145  RH  062%=      5-min Rain = 0
KSM2 201254Z 22003KT 22/15 A3014 RMK A01 T02210145  RH  062%=      5-min Rain = 0
KSM2 201255Z 22003KT 22/15 A3014 RMK A01 T02220146  RH  062%=      5-min Rain = 0
KSM2 201256Z 22003KT 22/15 A3014 RMK A01 T02230146  RH  062%=      5-min Rain = 0
KSM2 201257Z 21003KT 22/15 A3014 RMK A01 T02240146  RH  061%=      5-min Rain = 0
KSM2 201258Z 21003KT 22/15 A3014 RMK A01 T02240146  RH  061%=      5-min Rain = 0
KSM2 201259Z 20003KT 23/15 A3014 RMK A01 T02250148  RH  062%=      5-min Rain = 0
KSM2 201300Z 20003KT 23/15 A3014 RMK A01 T02260147  RH  061%=      5-min Rain = 0
KSM2 201301Z 20003KT 23/15 A3014 RMK A01 T02260146  RH  061%=      5-min Rain = 0
KSM2 201302Z 19003KT 23/15 A3014 RMK A01 T02260146  RH  061%=      5-min Rain = 0
KSM2 201303Z 18003KT 23/15 A3014 RMK A01 T02260147  RH  061%=      5-min Rain = 0
KSM2 201304Z 18003KT 23/15 A3014 RMK A01 T02270148  RH  061%=      5-min Rain = 0
KSM2 201305Z 18003KT 23/15 A3014 RMK A01 T02270148  RH  061%=      5-min Rain = 0
KSM2 201306Z 18003KT 23/15 A3014 RMK A01 T02270148  RH  061%=      5-min Rain = 0
KSM2 201307Z 18003KT 23/15 A3014 RMK A01 T02270147  RH  061%=      5-min Rain = 0
KSM2 201308Z 19003KT 23/15 A3014 RMK A01 T02280148  RH  061%=      5-min Rain = 0
KSM2 201309Z 18004KT 23/15 A3014 RMK A01 T02290146  RH  060%=      5-min Rain = 0
KSM2 201310Z 18004KT 23/15 A3014 RMK A01 T02290147  RH  060%=      5-min Rain = 0
KSM2 201311Z 18004KT 23/15 A3014 RMK A01 T02300147  RH  059%=      5-min Rain = 0
KSM2 201312Z 18004KT 23/15 A3014 RMK A01 T02300147  RH  059%=      5-min Rain = 0
KSM2 201313Z 18004KT 23/15 A3014 RMK A01 T02310147  RH  059%=      5-min Rain = 0
KSM2 201314Z 18004KT 23/15 A3014 RMK A01 T02320147  RH  059%=      5-min Rain = 0
KSM2 201315Z 18003KT 23/15 A3014 RMK A01 T02330146  RH  058%=      5-min Rain = 0
KSM2 201316Z 18003KT 23/15 A3014 RMK A01 T02340147  RH  058%=      5-min Rain = 0
KSM2 201317Z 18004KT 24/15 A3014 RMK A01 T02350147  RH  058%=      5-min Rain = 0
KSM2 201318Z 18003KT 24/15 A3015 RMK A01 T02360146  RH  057%=      5-min Rain = 0
KSM2 201319Z 18003KT 24/15 A3015 RMK A01 T02370146  RH  057%=      5-min Rain = 0
KSM2 201320Z 18003KT 24/15 A3014 RMK A01 T02370146  RH  057%=      5-min Rain = 0
KSM2 201321Z 19003KT 24/15 A3014 RMK A01 T02380147  RH  057%=      5-min Rain = 0
KSM2 201322Z 19004KT 24/15 A3014 RMK A01 T02380146  RH  056%=      5-min Rain = 0
KSM2 201323Z 19004KT 24/15 A3014 RMK A01 T02390146  RH  056%=      5-min Rain = 0
KSM2 201324Z 20004KT 24/15 A3014 RMK A01 T02390147  RH  056%=      5-min Rain = 0
KSM2 201325Z 19005KT 24/15 A3014 RMK A01 T02390147  RH  056%=      5-min Rain = 0
KSM2 201326Z 20004KT 24/15 A3014 RMK A01 T02390148  RH  057%=      5-min Rain = 0
KSM2 201327Z 21003KT 24/15 A3014 RMK A01 T02390149  RH  057%=      5-min Rain = 0
KSM2 201328Z 20003KT 24/15 A3014 RMK A01 T02400149  RH  057%=      5-min Rain = 0
KSM2 201329Z 20004KT 24/15 A3014 RMK A01 T02400150  RH  057%=      5-min Rain = 0
KSM2 201330Z 21004KT 24/15 A3014 RMK A01 T02400149  RH  056%=      5-min Rain = 0
KSM2 201331Z 21004KT 24/15 A3014 RMK A01 T02410148  RH  056%=      5-min Rain = 0
KSM2 201332Z 21005KT 24/15 A3014 RMK A01 T02420147  RH  055%=      5-min Rain = 0
KSM2 201333Z 21005KT 24/15 A3014 RMK A01 T02430146  RH  055%=      5-min Rain = 0
KSM2 201334Z 21004KT 24/15 A3014 RMK A01 T02440147  RH  055%=      5-min Rain = 0
KSM2 201335Z 22004KT 25/15 A3014 RMK A01 T02450149  RH  055%=      5-min Rain = 0
KSM2 201336Z 21005KT 25/15 A3014 RMK A01 T02450149  RH  055%=      5-min Rain = 0
KSM2 201337Z 21006KT 25/15 A3014 RMK A01 T02450149  RH  055%=      5-min Rain = 0
KSM2 201338Z 21005KT 25/15 A3014 RMK A01 T02460149  RH  055%=      5-min Rain = 0
KSM2 201339Z 21005KT 25/15 A3014 RMK A01 T02450149  RH  055%=      5-min Rain = 0
KSM2 201340Z 21005KT 25/15 A3015 RMK A01 T02460150  RH  055%=      5-min Rain = 0
KSM2 201341Z 21005KT 25/15 A3015 RMK A01 T02460152  RH  056%=      5-min Rain = 0
KSM2 201342Z 20005KT 25/15 A3015 RMK A01 T02470152  RH  055%=      5-min Rain = 0
KSM2 201343Z 20006KT 25/15 A3015 RMK A01 T02480152  RH  055%=      5-min Rain = 0
KSM2 201344Z 20006KT 25/15 A3015 RMK A01 T02490153  RH  055%=      5-min Rain = 0
KSM2 201345Z 21007KT 25/15 A3015 RMK A01 T02500151  RH  054%=      5-min Rain = 0
KSM2 201346Z 20006KT 25/15 A3015 RMK A01 T02500151  RH  054%=      5-min Rain = 0
KSM2 201347Z 20006KT 25/15 A3015 RMK A01 T02510152  RH  054%=      5-min Rain = 0
KSM2 201348Z 20007KT 25/15 A3015 RMK A01 T02510152  RH  054%=      5-min Rain = 0
KSM2 201349Z 20006KT 25/15 A3015 RMK A01 T02510152  RH  054%=      5-min Rain = 0
KSM2 201350Z 21006KT 25/15 A3015 RMK A01 T02510153  RH  055%=      5-min Rain = 0
KSM2 201351Z 20006KT 25/15 A3015 RMK A01 T02500154  RH  055%=      5-min Rain = 0
KSM2 201352Z 20007KT 25/15 A3015 RMK A01 T02490154  RH  056%=      5-min Rain = 0
KSM2 201353Z 21008KT 25/16 A3015 RMK A01 T02490155  RH  056%=      5-min Rain = 0
KSM2 201354Z 20007KT 25/16 A3015 RMK A01 T02480155  RH  056%=      5-min Rain = 0
KSM2 201355Z 19007KT 25/16 A3015 RMK A01 T02480156  RH  056%=      5-min Rain = 0
KSM2 201356Z 20008KT 25/16 A3014 RMK A01 T02480156  RH  056%=      5-min Rain = 0
KSM2 201357Z 20007KT 25/16 A3014 RMK A01 T02480156  RH  056%=      5-min Rain = 0
KSM2 201358Z 20007KT 25/16 A3014 RMK A01 T02490156  RH  056%=      5-min Rain = 0
KSM2 201359Z 20007KT 25/16 A3014 RMK A01 T02500157  RH  056%=      5-min Rain = 0
KSM2 201400Z 20007KT 25/16 A3014 RMK A01 T02500156  RH  056%=      5-min Rain = 0
KSM2 201401Z 20008KT 25/16 A3014 RMK A01 T02510157  RH  056%=      5-min Rain = 0
KSM2 201402Z 21008KT 25/16 A3014 RMK A01 T02510157  RH  056%=      5-min Rain = 0
KSM2 201403Z 21008KT 25/16 A3014 RMK A01 T02510157  RH  056%=      5-min Rain = 0
KSM2 201404Z 21008KT 25/16 A3014 RMK A01 T02510157  RH  056%=      5-min Rain = 0
KSM2 201405Z 20007KT 25/16 A3014 RMK A01 T02510158  RH  056%=      5-min Rain = 0
KSM2 201406Z 21007KT 25/16 A3014 RMK A01 T02510158  RH  056%=      5-min Rain = 0
KSM2 201407Z 20008KT 25/16 A3014 RMK A01 T02510158  RH  056%=      5-min Rain = 0
KSM2 201408Z 20007KT 25/16 A3014 RMK A01 T02520158  RH  056%=      5-min Rain = 0
KSM2 201409Z 20008KT 25/16 A3014 RMK A01 T02530159  RH  056%=      5-min Rain = 0
KSM2 201410Z 20008KT 25/16 A3014 RMK A01 T02540160  RH  056%=      5-min Rain = 0
KSM2 201411Z 21008KT 25/16 A3015 RMK A01 T02540159  RH  056%=      5-min Rain = 0
KSM2 201412Z 20009KT 25/16 A3015 RMK A01 T02540160  RH  056%=      5-min Rain = 0
KSM2 201413Z 20009KT 25/16 A3015 RMK A01 T02540160  RH  056%=      5-min Rain = 0
KSM2 201414Z 20007KT 26/16 A3015 RMK A01 T02550161  RH  056%=      5-min Rain = 0
KSM2 201415Z 19007KT 26/16 A3015 RMK A01 T02550161  RH  056%=      5-min Rain = 0
KSM2 201416Z 21008KT 26/16 A3015 RMK A01 T02550161  RH  056%=      5-min Rain = 0
KSM2 201417Z 21009KT 26/16 A3015 RMK A01 T02550161  RH  056%=      5-min Rain = 0
KSM2 201418Z 20008KT 26/16 A3015 RMK A01 T02550160  RH  056%=      5-min Rain = 0
KSM2 201419Z 20007KT 25/16 A3015 RMK A01 T02540161  RH  056%=      5-min Rain = 0
KSM2 201420Z 20006KT 26/16 A3015 RMK A01 T02550162  RH  056%=      5-min Rain = 0
KSM2 201421Z 20006KT 26/16 A3015 RMK A01 T02550162  RH  056%=      5-min Rain = 0
KSM2 201422Z 21009KT 26/16 A3015 RMK A01 T02550162  RH  056%=      5-min Rain = 0
KSM2 201423Z 20008KT 26/16 A3015 RMK A01 T02560162  RH  056%=      5-min Rain = 0
KSM2 201424Z 20007KT 26/16 A3015 RMK A01 T02560163  RH  056%=      5-min Rain = 0
KSM2 201425Z 20009KT 26/16 A3015 RMK A01 T02570164  RH  057%=      5-min Rain = 0
KSM2 201426Z 21008KT 26/16 A3015 RMK A01 T02570164  RH  056%=      5-min Rain = 0
KSM2 201427Z 20008KT 26/16 A3015 RMK A01 T02580164  RH  056%=      5-min Rain = 0
KSM2 201428Z 20008KT 26/17 A3015 RMK A01 T02580165  RH  056%=      5-min Rain = 0
KSM2 201429Z 21010KT 26/17 A3015 RMK A01 T02600165  RH  056%=      5-min Rain = 0
KSM2 201430Z 21010KT 26/16 A3014 RMK A01 T02600164  RH  056%=      5-min Rain = 0
KSM2 201431Z 20008KT 26/17 A3015 RMK A01 T02600165  RH  056%=      5-min Rain = 0
KSM2 201432Z 20008KT 26/17 A3015 RMK A01 T02600166  RH  056%=      5-min Rain = 0
KSM2 201433Z 21011KT 26/17 A3014 RMK A01 T02600166  RH  056%=      5-min Rain = 0
KSM2 201434Z 20009KT 26/17 A3015 RMK A01 T02610166  RH  056%=      5-min Rain = 0
KSM2 201435Z 19009KT 26/17 A3015 RMK A01 T02620168  RH  056%=      5-min Rain = 0
KSM2 201436Z 20010KT 26/17 A3015 RMK A01 T02640167  RH  055%=      5-min Rain = 0
KSM2 201437Z 21009KT 26/17 A3015 RMK A01 T02640168  RH  055%=      5-min Rain = 0
KSM2 201438Z 21011KT 27/17 A3015 RMK A01 T02650168  RH  055%=      5-min Rain = 0
KSM2 201439Z 21010KT 27/17 A3015 RMK A01 T02670169  RH  055%=      5-min Rain = 0
KSM2 201440Z 21010KT 27/17 A3015 RMK A01 T02680169  RH  054%=      5-min Rain = 0
KSM2 201441Z 21011KT 27/17 A3015 RMK A01 T02700170  RH  055%=      5-min Rain = 0
KSM2 201442Z 22012KT 27/17 A3014 RMK A01 T02710169  RH  054%=      5-min Rain = 0
KSM2 201443Z 21010KT 27/17 A3014 RMK A01 T02710169  RH  054%=      5-min Rain = 0
KSM2 201444Z 20009KT 27/17 A3015 RMK A01 T02710170  RH  054%=      5-min Rain = 0
KSM2 201445Z 21011KT 27/17 A3015 RMK A01 T02710169  RH  054%=      5-min Rain = 0
KSM2 201446Z 21011KT 27/17 A3015 RMK A01 T02710169  RH  054%=      5-min Rain = 0
KSM2 201447Z 21013KT 27/17 A3015 RMK A01 T02710170  RH  054%=      5-min Rain = 0
KSM2 201448Z 20009KT 27/17 A3015 RMK A01 T02710169  RH  054%=      5-min Rain = 0
KSM2 201449Z 21009KT 27/17 A3015 RMK A01 T02710171  RH  054%=      5-min Rain = 0
KSM2 201450Z 21010KT 27/17 A3015 RMK A01 T02720171  RH  054%=      5-min Rain = 0
KSM2 201451Z 21010KT 27/17 A3015 RMK A01 T02730170  RH  054%=      5-min Rain = 0
KSM2 201452Z 20010KT 27/17 A3015 RMK A01 T02720170  RH  054%=      5-min Rain = 0
KSM2 201453Z 20010KT 27/17 A3015 RMK A01 T02730171  RH  054%=      5-min Rain = 0
KSM2 201454Z 20011KT 28/17 A3015 RMK A01 T02750172  RH  053%=      5-min Rain = 0
KSM2 201455Z 20008KT 28/17 A3015 RMK A01 T02760172  RH  053%=      5-min Rain = 0
KSM2 201456Z 20009KT 28/18 A3015 RMK A01 T02790175  RH  053%=      5-min Rain = 0
KSM2 201457Z 21011KT 28/17 A3015 RMK A01 T02800171  RH  051%=      5-min Rain = 0
KSM2 201458Z 21013KT 28/17 A3015 RMK A01 T02800171  RH  052%=      5-min Rain = 0
KSM2 201459Z 22011KT 28/17 A3015 RMK A01 T02790171  RH  052%=      5-min Rain = 0
KSM2 201500Z 22012KT 28/17 A3015 RMK A01 T02800171  RH  051%=      5-min Rain = 0
KSM2 201501Z 22012KT 28/17 A3015 RMK A01 T02820173  RH  052%=      5-min Rain = 0
KSM2 201502Z 22011KT 28/17 A3015 RMK A01 T02830172  RH  051%=      5-min Rain = 0
KSM2 201503Z 20009KT 28/17 A3015 RMK A01 T02820172  RH  051%=      5-min Rain = 0
KSM2 201504Z 19009KT 28/17 A3015 RMK A01 T02820174  RH  052%=      5-min Rain = 0
KSM2 201505Z 19010KT 28/17 A3015 RMK A01 T02830174  RH  052%=      5-min Rain = 0
KSM2 201506Z 20009KT 28/18 A3015 RMK A01 T02830176  RH  052%=      5-min Rain = 0
KSM2 201507Z 21010KT 29/18 A3015 RMK A01 T02850175  RH  051%=      5-min Rain = 0
KSM2 201508Z 20009KT 29/17 A3015 RMK A01 T02850173  RH  051%=      5-min Rain = 0
KSM2 201509Z 21008KT 28/17 A3015 RMK A01 T02830174  RH  052%=      5-min Rain = 0
KSM2 201510Z 21009KT 28/18 A3015 RMK A01 T02820175  RH  052%=      5-min Rain = 0
KSM2 201511Z 21009KT 29/18 A3015 RMK A01 T02850177  RH  052%=      5-min Rain = 0
KSM2 201512Z 23011KT 29/18 A3015 RMK A01 T02860175  RH  051%=      5-min Rain = 0
KSM2 201513Z 21010KT 29/18 A3015 RMK A01 T02850175  RH  051%=      5-min Rain = 0
KSM2 201514Z 21010KT 28/18 A3015 RMK A01 T02840176  RH  052%=      5-min Rain = 0
KSM2 201515Z 20010KT 28/18 A3015 RMK A01 T02840175  RH  052%=      5-min Rain = 0
KSM2 201516Z 20008KT 28/17 A3015 RMK A01 T02840174  RH  051%=      5-min Rain = 0
KSM2 201517Z 22009KT 29/18 A3015 RMK A01 T02870177  RH  051%=      5-min Rain = 0
KSM2 201518Z 22012KT 29/18 A3015 RMK A01 T02890176  RH  050%=      5-min Rain = 0
KSM2 201519Z 21010KT 29/18 A3015 RMK A01 T02880175  RH  051%=      5-min Rain = 0
KSM2 201520Z 20010KT 29/18 A3015 RMK A01 T02860175  RH  051%=      5-min Rain = 0
KSM2 201521Z 21011KT 29/18 A3015 RMK A01 T02860177  RH  051%=      5-min Rain = 0
KSM2 201522Z 22009KT 29/18 A3015 RMK A01 T02870176  RH  051%=      5-min Rain = 0
KSM2 201523Z 22011KT 29/18 A3015 RMK A01 T02880175  RH  050%=      5-min Rain = 0
KSM2 201524Z 21010KT 29/18 A3015 RMK A01 T02870175  RH  051%=      5-min Rain = 0
KSM2 201525Z 21011KT 29/18 A3015 RMK A01 T02880175  RH  051%=      5-min Rain = 0
KSM2 201526Z 21009KT 29/18 A3015 RMK A01 T02890176  RH  050%=      5-min Rain = 0
KSM2 201527Z 20010KT 29/18 A3015 RMK A01 T02900176  RH  050%=      5-min Rain = 0
KSM2 201528Z 20010KT 29/18 A3015 RMK A01 T02890176  RH  050%=      5-min Rain = 0
KSM2 201529Z 19010KT 29/18 A3015 RMK A01 T02900177  RH  050%=      5-min Rain = 0
KSM2 201530Z 19012KT 29/18 A3015 RMK A01 T02920175  RH  049%=      5-min Rain = 0
KSM2 201531Z 19014KT 29/17 A3015 RMK A01 T02910173  RH  049%=      5-min Rain = 0
KSM2 201532Z 19012KT 29/17 A3015 RMK A01 T02890174  RH  050%=      5-min Rain = 0
KSM2 201533Z 19011KT 29/17 A3015 RMK A01 T02880174  RH  050%=      5-min Rain = 0
KSM2 201534Z 20010KT 29/18 A3015 RMK A01 T02880175  RH  050%=      5-min Rain = 0
KSM2 201535Z 21013KT 29/18 A3015 RMK A01 T02890176  RH  050%=      5-min Rain = 0
KSM2 201536Z 21013KT 29/17 A3015 RMK A01 T02900174  RH  050%=      5-min Rain = 0
KSM2 201537Z 20011KT 29/17 A3015 RMK A01 T02890173  RH  050%=      5-min Rain = 0
KSM2 201538Z 20010KT 29/18 A3015 RMK A01 T02900176  RH  050%=      5-min Rain = 0
KSM2 201539Z 21011KT 29/18 A3015 RMK A01 T02940176  RH  049%=      5-min Rain = 0
KSM2 201540Z 21012KT 30/18 A3015 RMK A01 T02950175  RH  048%=      5-min Rain = 0
KSM2 201541Z 22010KT 29/18 A3015 RMK A01 T02940175  RH  049%=      5-min Rain = 0
KSM2 201542Z 19010KT 29/18 A3015 RMK A01 T02940178  RH  049%=      5-min Rain = 0
KSM2 201543Z 19010KT 30/18 A3015 RMK A01 T02970179  RH  049%=      5-min Rain = 0
KSM2 201544Z 19011KT 30/18 A3015 RMK A01 T02980176  RH  048%=      5-min Rain = 0
KSM2 201545Z 19011KT 30/18 A3015 RMK A01 T02970177  RH  048%=      5-min Rain = 0
KSM2 201546Z 20009KT 30/18 A3015 RMK A01 T02970175  RH  048%=      5-min Rain = 0
KSM2 201547Z 20009KT 30/18 A3015 RMK A01 T02960175  RH  048%=      5-min Rain = 0
KSM2 201548Z 18011KT 30/18 A3015 RMK A01 T02960176  RH  048%=      5-min Rain = 0
KSM2 201549Z 18010KT 30/18 A3015 RMK A01 T02970175  RH  048%=      5-min Rain = 0
KSM2 201550Z 18009KT 30/18 A3015 RMK A01 T02960175  RH  048%=      5-min Rain = 0
KSM2 201551Z 18009KT 30/18 A3015 RMK A01 T02960176  RH  048%=      5-min Rain = 0
KSM2 201552Z 19009KT 30/18 A3015 RMK A01 T02980178  RH  049%=      5-min Rain = 0
KSM2 201553Z 19009KT 30/18 A3015 RMK A01 T03010176  RH  047%=      5-min Rain = 0
KSM2 201554Z 20008KT 30/18 A3015 RMK A01 T02990177  RH  048%=      5-min Rain = 0
KSM2 201555Z 18011KT 30/18 A3015 RMK A01 T03000178  RH  048%=      5-min Rain = 0
KSM2 201556Z 19010KT 30/18 A3015 RMK A01 T03010176  RH  047%=      5-min Rain = 0
KSM2 201557Z 18011KT 30/18 A3015 RMK A01 T03020177  RH  047%=      5-min Rain = 0
KSM2 201558Z 19010KT 30/18 A3015 RMK A01 T03020176  RH  047%=      5-min Rain = 0
KSM2 201559Z 19011KT 30/18 A3015 RMK A01 T03010176  RH  047%=      5-min Rain = 0
KSM2 201600Z 19009KT 30/18 A3015 RMK A01 T02990175  RH  047%=      5-min Rain = 0
KSM2 201601Z 21007KT 30/18 A3015 RMK A01 T02970176  RH  048%=      5-min Rain = 0
KSM2 201602Z 20011KT 30/18 A3015 RMK A01 T02990176  RH  048%=      5-min Rain = 0
KSM2 201603Z 19010G15KT 30/18 A3015 RMK A01 T03000176  RH  047%=      5-min Rain = 0
KSM2 201604Z 20010KT 30/18 A3015 RMK A01 T03010176  RH  047%=      5-min Rain = 0
KSM2 201605Z 22010KT 30/18 A3015 RMK A01 T03020175  RH  047%=      5-min Rain = 0
KSM2 201606Z 23008KT 30/17 A3015 RMK A01 T03020174  RH  046%=      5-min Rain = 0
KSM2 201607Z 21010KT 30/17 A3015 RMK A01 T03010174  RH  047%=      5-min Rain = 0
KSM2 201608Z 19008KT 30/18 A3015 RMK A01 T03020179  RH  048%=      5-min Rain = 0
KSM2 201609Z 18009KT 30/18 A3015 RMK A01 T03040178  RH  047%=      5-min Rain = 0
KSM2 201610Z 19008KT 31/18 A3015 RMK A01 T03050178  RH  047%=      5-min Rain = 0
KSM2 201611Z 21009KT 30/18 A3015 RMK A01 T03040176  RH  046%=      5-min Rain = 0
KSM2 201612Z 23008KT 30/18 A3015 RMK A01 T03020175  RH  047%=      5-min Rain = 0
KSM2 201613Z 22007KT 30/18 A3015 RMK A01 T03000175  RH  047%=      5-min Rain = 0
KSM2 201614Z 20008KT 30/18 A3015 RMK A01 T03010179  RH  048%=      5-min Rain = 0
KSM2 201615Z 20008KT 31/18 A3015 RMK A01 T03050178  RH  047%=      5-min Rain = 0
KSM2 201616Z 18008KT 31/18 A3015 RMK A01 T03050178  RH  047%=      5-min Rain = 0
KSM2 201617Z 20009KT 30/18 A3015 RMK A01 T03030179  RH  047%=      5-min Rain = 0
KSM2 201618Z 20008KT 30/18 A3015 RMK A01 T03030177  RH  047%=      5-min Rain = 0
KSM2 201619Z 21008KT 30/18 A3015 RMK A01 T03040179  RH  047%=      5-min Rain = 0
KSM2 201620Z 21008KT 31/18 A3015 RMK A01 T03050176  RH  046%=      5-min Rain = 0
KSM2 201621Z 20008KT 30/18 A3015 RMK A01 T03030176  RH  047%=      5-min Rain = 0
KSM2 201622Z 19008KT 30/18 A3015 RMK A01 T03030177  RH  047%=      5-min Rain = 0
KSM2 201623Z 18008KT 30/18 A3015 RMK A01 T03040179  RH  047%=      5-min Rain = 0
KSM2 201624Z 20010KT 31/18 A3015 RMK A01 T03070178  RH  046%=      5-min Rain = 0
KSM2 201625Z 18008KT 31/18 A3015 RMK A01 T03060179  RH  047%=      5-min Rain = 0
KSM2 201626Z 17007KT 31/18 A3015 RMK A01 T03050178  RH  047%=      5-min Rain = 0
KSM2 201627Z 17009KT 31/18 A3015 RMK A01 T03060179  RH  047%=      5-min Rain = 0
KSM2 201628Z 18010KT 31/18 A3015 RMK A01 T03070176  RH  045%=      5-min Rain = 0
KSM2 201629Z 18008KT 31/18 A3015 RMK A01 T03050176  RH  046%=      5-min Rain = 0
KSM2 201630Z 19008KT 31/18 A3015 RMK A01 T03050179  RH  047%=      5-min Rain = 0
KSM2 201631Z 20009KT 31/18 A3015 RMK A01 T03060178  RH  046%=      5-min Rain = 0
KSM2 201632Z 19006KT 31/18 A3015 RMK A01 T03070178  RH  046%=      5-min Rain = 0
KSM2 201633Z 19008KT 31/18 A3015 RMK A01 T03080181  RH  047%=      5-min Rain = 0
KSM2 201634Z 18008KT 31/18 A3015 RMK A01 T03090179  RH  046%=      5-min Rain = 0
KSM2 201635Z 19009KT 31/18 A3015 RMK A01 T03090179  RH  046%=      5-min Rain = 0
KSM2 201636Z 18007KT 31/18 A3015 RMK A01 T03080177  RH  046%=      5-min Rain = 0
KSM2 201637Z 19008KT 31/18 A3015 RMK A01 T03090179  RH  046%=      5-min Rain = 0
KSM2 201638Z 18008KT 31/18 A3015 RMK A01 T03120176  RH  044%=      5-min Rain = 0
KSM2 201639Z 18009KT 31/18 A3015 RMK A01 T03110176  RH  045%=      5-min Rain = 0
KSM2 201640Z 17008KT 31/18 A3015 RMK A01 T03100177  RH  045%=      5-min Rain = 0
KSM2 201641Z 18008KT 31/18 A3015 RMK A01 T03090175  RH  045%=      5-min Rain = 0
KSM2 201642Z 19007KT 31/17 A3015 RMK A01 T03070174  RH  045%=      5-min Rain = 0
KSM2 201643Z 19007KT 31/18 A3015 RMK A01 T03060179  RH  047%=      5-min Rain = 0
KSM2 201644Z 20007KT 31/18 A3015 RMK A01 T03090176  RH  045%=      5-min Rain = 0
KSM2 201645Z 20006KT 31/18 A3015 RMK A01 T03080175  RH  045%=      5-min Rain = 0
KSM2 201646Z 21005KT 31/18 A3015 RMK A01 T03080176  RH  045%=      5-min Rain = 0
KSM2 201647Z 22008KT 31/17 A3015 RMK A01 T03100170  RH  043%=      5-min Rain = 0
KSM2 201648Z 22009KT 31/17 A3014 RMK A01 T03100168  RH  042%=      5-min Rain = 0
KSM2 201649Z 22007KT 31/17 A3015 RMK A01 T03130172  RH  043%=      5-min Rain = 0
KSM2 201650Z 22009KT 32/17 A3014 RMK A01 T03150167  RH  041%=      5-min Rain = 0
KSM2 201651Z 21007KT 32/17 A3014 RMK A01 T03150167  RH  041%=      5-min Rain = 0
KSM2 201652Z 20007KT 32/17 A3014 RMK A01 T03170173  RH  042%=      5-min Rain = 0
KSM2 201653Z 19009KT 32/17 A3014 RMK A01 T03190173  RH  042%=      5-min Rain = 0
KSM2 201654Z 20007KT 32/17 A3014 RMK A01 T03150170  RH  042%=      5-min Rain = 0
KSM2 201655Z 21007KT 31/17 A3014 RMK A01 T03130173  RH  043%=      5-min Rain = 0
KSM2 201656Z 21009KT 32/17 A3014 RMK A01 T03150169  RH  042%=      5-min Rain = 0
KSM2 201657Z 22010KT 32/17 A3014 RMK A01 T03160165  RH  040%=      5-min Rain = 0
KSM2 201658Z 22008KT 32/17 A3014 RMK A01 T03190166  RH  040%=      5-min Rain = 0
KSM2 201659Z 21008KT 32/16 A3015 RMK A01 T03200164  RH  039%=      5-min Rain = 0
KSM2 201700Z 22007KT 32/17 A3015 RMK A01 T03160165  RH  040%=      5-min Rain = 0
KSM2 201701Z 20008KT 32/17 A3015 RMK A01 T03170165  RH  040%=      5-min Rain = 0
KSM2 201702Z 18007KT 32/17 A3015 RMK A01 T03190169  RH  041%=      5-min Rain = 0
KSM2 201703Z 19007KT 32/16 A3015 RMK A01 T03200164  RH  039%=      5-min Rain = 0
KSM2 201704Z 20010KT 32/17 A3015 RMK A01 T03190165  RH  040%=      5-min Rain = 0
KSM2 201705Z 21009KT 32/16 A3015 RMK A01 T03200156  RH  037%=      5-min Rain = 0
KSM2 201706Z 21009KT 32/16 A3015 RMK A01 T03190158  RH  038%=      5-min Rain = 0
KSM2 201707Z 20007KT 32/16 A3014 RMK A01 T03170162  RH  039%=      5-min Rain = 0
KSM2 201708Z 19009KT 32/16 A3014 RMK A01 T03160164  RH  040%=      5-min Rain = 0
KSM2 201709Z 20008KT 32/17 A3014 RMK A01 T03170166  RH  040%=      5-min Rain = 0
KSM2 201710Z 21008KT 32/17 A3014 RMK A01 T03190165  RH  040%=      5-min Rain = 0
KSM2 201711Z 20007KT 32/16 A3014 RMK A01 T03190162  RH  039%=      5-min Rain = 0
KSM2 201712Z 21010KT 32/16 A3014 RMK A01 T03200161  RH  038%=      5-min Rain = 0
KSM2 201713Z 20011KT 32/16 A3014 RMK A01 T03220160  RH  038%=      5-min Rain = 0
KSM2 201714Z 22010KT 32/16 A3014 RMK A01 T03200157  RH  037%=      5-min Rain = 0
KSM2 201715Z 21007KT 32/16 A3014 RMK A01 T03160155  RH  038%=      5-min Rain = 0
KSM2 201716Z 19004KT 32/15 A3014 RMK A01 T03150154  RH  038%=      5-min Rain = 0
KSM2 201717Z 21005KT 32/16 A3014 RMK A01 T03160157  RH  038%=      5-min Rain = 0
KSM2 201718Z 22010KT 32/16 A3014 RMK A01 T03170161  RH  039%=      5-min Rain = 0
KSM2 201719Z 22008KT 32/16 A3014 RMK A01 T03180161  RH  039%=      5-min Rain = 0
KSM2 201720Z 22010KT 32/16 A3014 RMK A01 T03200161  RH  038%=      5-min Rain = 0
KSM2 201721Z 21011KT 32/16 A3014 RMK A01 T03200160  RH  038%=      5-min Rain = 0
KSM2 201722Z 20008KT 32/16 A3014 RMK A01 T03180160  RH  038%=      5-min Rain = 0
KSM2 201723Z 20007KT 32/16 A3014 RMK A01 T03170161  RH  039%=      5-min Rain = 0
KSM2 201724Z 18006KT 32/16 A3014 RMK A01 T03170160  RH  039%=      5-min Rain = 0
KSM2 201725Z 18005KT 32/16 A3014 RMK A01 T03160160  RH  039%=      5-min Rain = 0
KSM2 201726Z 22009KT 32/16 A3014 RMK A01 T03170160  RH  039%=      5-min Rain = 0
KSM2 201727Z 21013KT 32/16 A3014 RMK A01 T03200158  RH  038%=      5-min Rain = 0
KSM2 201728Z 20010KT 32/16 A3014 RMK A01 T03200160  RH  038%=      5-min Rain = 0
KSM2 201729Z 21009KT 32/16 A3014 RMK A01 T03220158  RH  037%=      5-min Rain = 0
KSM2 201730Z 19007KT 32/16 A3014 RMK A01 T03200156  RH  037%=      5-min Rain = 0
KSM2 201731Z 17007KT 32/16 A3014 RMK A01 T03190160  RH  038%=      5-min Rain = 0
KSM2 201732Z 20006KT 32/16 A3014 RMK A01 T03220163  RH  039%=      5-min Rain = 0
KSM2 201733Z 17007KT 33/16 A3014 RMK A01 T03280164  RH  037%=      5-min Rain = 0
KSM2 201734Z 18007KT 33/16 A3014 RMK A01 T03270159  RH  036%=      5-min Rain = 0
KSM2 201735Z 17004KT 32/16 A3014 RMK A01 T03220159  RH  037%=      5-min Rain = 0
KSM2 201736Z 17005KT 32/16 A3014 RMK A01 T03210161  RH  038%=      5-min Rain = 0
KSM2 201737Z 20006KT 32/16 A3014 RMK A01 T03230160  RH  037%=      5-min Rain = 0
KSM2 201738Z 22008KT 33/16 A3014 RMK A01 T03250161  RH  037%=      5-min Rain = 0
KSM2 201739Z 22008KT 33/16 A3014 RMK A01 T03270157  RH  036%=      5-min Rain = 0
KSM2 201740Z 20006KT 33/16 A3014 RMK A01 T03270161  RH  037%=      5-min Rain = 0
KSM2 201741Z 20009KT 33/16 A3014 RMK A01 T03250157  RH  037%=      5-min Rain = 0
KSM2 201742Z 17009KT 33/15 A3014 RMK A01 T03260154  RH  035%=      5-min Rain = 0
KSM2 201743Z 18007KT 33/16 A3014 RMK A01 T03320159  RH  035%=      5-min Rain = 0
KSM2 201744Z 21007KT 33/16 A3014 RMK A01 T03310155  RH  035%=      5-min Rain = 0
KSM2 201745Z 20007KT 33/16 A3014 RMK A01 T03280161  RH  037%=      5-min Rain = 0
KSM2 201746Z 21007KT 33/16 A3014 RMK A01 T03280159  RH  036%=      5-min Rain = 0
KSM2 201747Z 19008KT 33/16 A3014 RMK A01 T03280163  RH  037%=      5-min Rain = 0
KSM2 201748Z 18006KT 33/16 A3014 RMK A01 T03290160  RH  036%=      5-min Rain = 0
KSM2 201749Z 15010KT 33/16 A3014 RMK A01 T03290160  RH  036%=      5-min Rain = 0
KSM2 201750Z 15009KT 33/16 A3014 RMK A01 T03290158  RH  036%=      5-min Rain = 0
KSM2 201751Z 16007KT 33/16 A3014 RMK A01 T03280156  RH  036%=      5-min Rain = 0
KSM2 201752Z 14009KT 33/16 A3014 RMK A01 T03250158  RH  036%=      5-min Rain = 0
KSM2 201753Z 15007KT 33/16 A3014 RMK A01 T03270160  RH  037%=      5-min Rain = 0
KSM2 201754Z 16006KT 33/16 A3014 RMK A01 T03320162  RH  036%=      5-min Rain = 0
KSM2 201755Z 15008KT 33/16 A3014 RMK A01 T03330160  RH  035%=      5-min Rain = 0
KSM2 201756Z 18007KT 33/16 A3014 RMK A01 T03340160  RH  035%=      5-min Rain = 0
KSM2 201757Z 16006KT 33/16 A3015 RMK A01 T03320158  RH  035%=      5-min Rain = 0
KSM2 201758Z 17006KT 33/16 A3014 RMK A01 T03290157  RH  036%=      5-min Rain = 0
KSM2 201759Z 16006KT 33/16 A3014 RMK A01 T03280156  RH  036%=      5-min Rain = 0
KSM2 201800Z 18009KT 33/16 A3014 RMK A01 T03290157  RH  036%=      5-min Rain = 0
KSM2 201801Z 18008KT 33/16 A3014 RMK A01 T03300157  RH  036%=      5-min Rain = 0
KSM2 201802Z 18008KT 33/16 A3014 RMK A01 T03290158  RH  036%=      5-min Rain = 0
KSM2 201803Z 21005KT 33/16 A3014 RMK A01 T03280158  RH  036%=      5-min Rain = 0
KSM2 201804Z 21006KT 33/16 A3014 RMK A01 T03270156  RH  036%=      5-min Rain = 0
KSM2 201805Z 20003KT 33/16 A3014 RMK A01 T03260155  RH  036%=      5-min Rain = 0
KSM2 201806Z 13008KT 33/16 A3014 RMK A01 T03290156  RH  035%=      5-min Rain = 0
KSM2 201807Z 14006KT 33/15 A3014 RMK A01 T03320154  RH  034%=      5-min Rain = 0
KSM2 201808Z 13007KT 33/15 A3014 RMK A01 T03330154  RH  034%=      5-min Rain = 0
KSM2 201809Z 14005KT 33/15 A3014 RMK A01 T03330153  RH  034%=      5-min Rain = 0
KSM2 201810Z 13004KT 33/15 A3014 RMK A01 T03330154  RH  034%=      5-min Rain = 0
KSM2 201811Z 12005KT 34/16 A3014 RMK A01 T03370157  RH  034%=      5-min Rain = 0
KSM2 201812Z 17007KT 34/16 A3014 RMK A01 T03410162  RH  035%=      5-min Rain = 0
KSM2 201813Z 17010KT 34/16 A3014 RMK A01 T03420156  RH  033%=      5-min Rain = 0
KSM2 201814Z 17011KT 34/15 A3014 RMK A01 T03380151  RH  033%=      5-min Rain = 0
KSM2 201815Z 17008KT 33/15 A3014 RMK A01 T03320154  RH  034%=      5-min Rain = 0
KSM2 201816Z 17008KT 33/16 A3014 RMK A01 T03310157  RH  035%=      5-min Rain = 0
KSM2 201817Z 16008KT 33/15 A3014 RMK A01 T03310154  RH  035%=      5-min Rain = 0
KSM2 201818Z 18007KT 33/15 A3014 RMK A01 T03290154  RH  035%=      5-min Rain = 0
KSM2 201819Z 15005KT 33/16 A3014 RMK A01 T03320155  RH  035%=      5-min Rain = 0
KSM2 201820Z 16006KT 33/15 A3014 RMK A01 T03340154  RH  034%=      5-min Rain = 0
KSM2 201821Z 19005KT 33/16 A3014 RMK A01 T03330156  RH  035%=      5-min Rain = 0
KSM2 201822Z 18006KT 33/15 A3014 RMK A01 T03320154  RH  034%=      5-min Rain = 0
KSM2 201823Z 18006KT 33/16 A3014 RMK A01 T03310156  RH  035%=      5-min Rain = 0
KSM2 201824Z 17005KT 33/16 A3014 RMK A01 T03300161  RH  036%=      5-min Rain = 0
KSM2 201825Z 16006KT 33/16 A3014 RMK A01 T03320159  RH  035%=      5-min Rain = 0
KSM2 201826Z 19009KT 34/16 A3014 RMK A01 T03360159  RH  035%=      5-min Rain = 0
KSM2 201827Z 19008KT 34/15 A3014 RMK A01 T03360150  RH  033%=      5-min Rain = 0
KSM2 201828Z 21007KT 33/15 A3014 RMK A01 T03330149  RH  033%=      5-min Rain = 0
KSM2 201829Z 21007KT 33/15 A3014 RMK A01 T03310150  RH  034%=      5-min Rain = 0
KSM2 201830Z 23007KT 33/15 A3014 RMK A01 T03330151  RH  034%=      5-min Rain = 0
KSM2 201831Z 22006KT 33/15 A3014 RMK A01 T03310149  RH  033%=      5-min Rain = 0
KSM2 201832Z 21005KT 33/15 A3014 RMK A01 T03300145  RH  033%=      5-min Rain = 0
KSM2 201833Z 19005KT 33/16 A3014 RMK A01 T03330156  RH  035%=      5-min Rain = 0
KSM2 201834Z 18003KT 34/16 A3014 RMK A01 T03370156  RH  034%=      5-min Rain = 0
KSM2 201835Z 14005KT 34/16 A3014 RMK A01 T03380159  RH  034%=      5-min Rain = 0
KSM2 201836Z 14004KT 34/16 A3013 RMK A01 T03390155  RH  033%=      5-min Rain = 0
KSM2 201837Z 14003KT 34/16 A3013 RMK A01 T03390160  RH  034%=      5-min Rain = 0
KSM2 201838Z 15007KT 34/16 A3013 RMK A01 T03410159  RH  034%=      5-min Rain = 0
KSM2 201839Z 18005KT 34/16 A3013 RMK A01 T03400161  RH  034%=      5-min Rain = 0
KSM2 201840Z 17006KT 34/16 A3013 RMK A01 T03420163  RH  035%=      5-min Rain = 0
KSM2 201841Z 15006KT 34/16 A3013 RMK A01 T03420161  RH  034%=      5-min Rain = 0
KSM2 201842Z 12005G10KT 34/16 A3013 RMK A01 T03440156  RH  033%=      5-min Rain = 0
KSM2 201843Z 11008KT 35/16 A3013 RMK A01 T03450157  RH  032%=      5-min Rain = 0
KSM2 201844Z 13007KT 35/16 A3013 RMK A01 T03490158  RH  032%=      5-min Rain = 0
KSM2 201845Z 13004KT 35/16 A3013 RMK A01 T03490156  RH  032%=      5-min Rain = 0
KSM2 201846Z 11004KT 35/16 A3013 RMK A01 T03450155  RH  032%=      5-min Rain = 0
KSM2 201847Z 13005KT 34/16 A3013 RMK A01 T03440157  RH  033%=      5-min Rain = 0
KSM2 201848Z 14005KT 35/16 A3013 RMK A01 T03480159  RH  032%=      5-min Rain = 0
KSM2 201849Z 15004KT 35/16 A3013 RMK A01 T03500156  RH  031%=      5-min Rain = 0
KSM2 201850Z 13006KT 35/16 A3013 RMK A01 T03490156  RH  032%=      5-min Rain = 0
KSM2 201851Z 15007KT 35/16 A3013 RMK A01 T03510158  RH  032%=      5-min Rain = 0
KSM2 201852Z 16007KT 35/16 A3013 RMK A01 T03520160  RH  032%=      5-min Rain = 0
KSM2 201853Z 14008KT 35/16 A3013 RMK A01 T03520158  RH  031%=      5-min Rain = 0
KSM2 201854Z 13008KT 35/15 A3013 RMK A01 T03510154  RH  031%=      5-min Rain = 0
KSM2 201855Z 15006KT 35/15 A3013 RMK A01 T03470154  RH  032%=      5-min Rain = 0
KSM2 201856Z 15009KT 34/15 A3013 RMK A01 T03440151  RH  031%=      5-min Rain = 0
KSM2 201857Z 14008KT 34/15 A3013 RMK A01 T03410150  RH  032%=      5-min Rain = 0
KSM2 201858Z 14010KT 34/15 A3013 RMK A01 T03420149  RH  031%=      5-min Rain = 0
KSM2 201859Z 13009KT 34/15 A3013 RMK A01 T03410150  RH  032%=      5-min Rain = 0
KSM2 201900Z 14008KT 34/15 A3013 RMK A01 T03410149  RH  032%=      5-min Rain = 0
KSM2 201901Z 15008KT 34/15 A3013 RMK A01 T03410148  RH  031%=      5-min Rain = 0
KSM2 201902Z 13007KT 34/15 A3013 RMK A01 T03420149  RH  031%=      5-min Rain = 0
KSM2 201903Z 13004KT 35/15 A3013 RMK A01 T03450150  RH  031%=      5-min Rain = 0
KSM2 201904Z 13006KT 35/15 A3013 RMK A01 T03460153  RH  032%=      5-min Rain = 0
KSM2 201905Z 16008KT 35/16 A3013 RMK A01 T03480157  RH  032%=      5-min Rain = 0
KSM2 201906Z 15005KT 35/15 A3013 RMK A01 T03470153  RH  031%=      5-min Rain = 0
KSM2 201907Z 16006G11KT 35/16 A3013 RMK A01 T03450157  RH  033%=      5-min Rain = 0
KSM2 201908Z 15005G10KT 35/15 A3013 RMK A01 T03450154  RH  032%=      5-min Rain = 0
KSM2 201909Z 11002KT 34/15 A3013 RMK A01 T03430152  RH  032%=      5-min Rain = 0
KSM2 201910Z 14007KT 34/15 A3013 RMK A01 T03420153  RH  032%=      5-min Rain = 0
KSM2 201911Z 13007G13KT 34/15 A3013 RMK A01 T03440154  RH  032%=      5-min Rain = 0
KSM2 201912Z 12006KT 35/15 A3013 RMK A01 T03450154  RH  032%=      5-min Rain = 0
KSM2 201913Z 14006KT 35/16 A3013 RMK A01 T03480157  RH  032%=      5-min Rain = 0
KSM2 201914Z 14009KT 35/15 A3013 RMK A01 T03500154  RH  031%=      5-min Rain = 0
KSM2 201915Z 16008KT 35/15 A3013 RMK A01 T03500153  RH  031%=      5-min Rain = 0
KSM2 201916Z 18003KT 35/15 A3013 RMK A01 T03460152  RH  031%=      5-min Rain = 0
KSM2 201917Z 19007KT 35/16 A3013 RMK A01 T03450157  RH  033%=      5-min Rain = 0
KSM2 201918Z 18010KT 35/15 A3013 RMK A01 T03450154  RH  032%=      5-min Rain = 0
KSM2 201919Z 14011KT 34/15 A3013 RMK A01 T03440152  RH  032%=      5-min Rain = 0
KSM2 201920Z 16008KT 35/15 A3013 RMK A01 T03460148  RH  031%=      5-min Rain = 0
KSM2 201921Z 14004KT 35/15 A3012 RMK A01 T03450148  RH  031%=      5-min Rain = 0
KSM2 201922Z 16002KT 35/15 A3012 RMK A01 T03450151  RH  031%=      5-min Rain = 0
KSM2 201923Z 14005KT 35/15 A3012 RMK A01 T03480154  RH  031%=      5-min Rain = 0
KSM2 201924Z 13007KT 35/15 A3012 RMK A01 T03520154  RH  031%=      5-min Rain = 0
KSM2 201925Z 12011KT 35/15 A3012 RMK A01 T03530152  RH  030%=      5-min Rain = 0
KSM2 201926Z 11009KT 35/15 A3012 RMK A01 T03510151  RH  030%=      5-min Rain = 0
KSM2 201927Z 12007KT 35/15 A3012 RMK A01 T03520151  RH  030%=      5-min Rain = 0
KSM2 201928Z 10005KT 35/16 A3012 RMK A01 T03530155  RH  031%=      5-min Rain = 0
KSM2 201929Z 11004KT 36/15 A3012 RMK A01 T03550154  RH  030%=      5-min Rain = 0
KSM2 201930Z 10005KT 35/15 A3012 RMK A01 T03530154  RH  030%=      5-min Rain = 0
KSM2 201931Z 10005KT 35/16 A3012 RMK A01 T03520155  RH  031%=      5-min Rain = 0
KSM2 201932Z 09007KT 36/16 A3012 RMK A01 T03550155  RH  030%=      5-min Rain = 0
KSM2 201933Z 11007KT 36/16 A3012 RMK A01 T03570157  RH  030%=      5-min Rain = 0
KSM2 201934Z 13004KT 36/15 A3012 RMK A01 T03570153  RH  030%=      5-min Rain = 0
KSM2 201935Z 17002KT 35/16 A3012 RMK A01 T03530156  RH  031%=      5-min Rain = 0
KSM2 201936Z 15003KT 35/16 A3012 RMK A01 T03530157  RH  031%=      5-min Rain = 0
KSM2 201937Z 16008KT 36/16 A3012 RMK A01 T03570161  RH  031%=      5-min Rain = 0
KSM2 201938Z 16010KT 36/16 A3012 RMK A01 T03590157  RH  030%=      5-min Rain = 0
KSM2 201939Z 15009KT 36/15 A3012 RMK A01 T03550153  RH  030%=      5-min Rain = 0
KSM2 201940Z 14009KT 35/15 A3012 RMK A01 T03540154  RH  030%=      5-min Rain = 0
KSM2 201941Z 17011KT 35/15 A3012 RMK A01 T03530154  RH  031%=      5-min Rain = 0
KSM2 201942Z 16009KT 35/16 A3012 RMK A01 T03480155  RH  031%=      5-min Rain = 0
KSM2 201943Z 16004KT 34/15 A3012 RMK A01 T03440151  RH  031%=      5-min Rain = 0
KSM2 201944Z 17004KT 34/15 A3012 RMK A01 T03410151  RH  032%=      5-min Rain = 0
KSM2 201945Z 11003KT 34/15 A3012 RMK A01 T03410153  RH  032%=      5-min Rain = 0
KSM2 201946Z 15003KT 35/15 A3011 RMK A01 T03450153  RH  032%=      5-min Rain = 0
KSM2 201947Z 14004KT 35/15 A3012 RMK A01 T03480153  RH  031%=      5-min Rain = 0
KSM2 201948Z 15008KT 35/16 A3011 RMK A01 T03510156  RH  031%=      5-min Rain = 0
KSM2 201949Z 16010KT 35/15 A3012 RMK A01 T03530152  RH  030%=      5-min Rain = 0
KSM2 201950Z 15008KT 35/15 A3012 RMK A01 T03530152  RH  030%=      5-min Rain = 0
KSM2 201951Z 16009KT 36/15 A3011 RMK A01 T03550151  RH  030%=      5-min Rain = 0
KSM2 201952Z 12007KT 36/15 A3011 RMK A01 T03550149  RH  029%=      5-min Rain = 0
KSM2 201953Z 13008KT 36/15 A3011 RMK A01 T03550147  RH  029%=      5-min Rain = 0
KSM2 201954Z 14009KT 36/15 A3011 RMK A01 T03550146  RH  029%=      5-min Rain = 0
KSM2 201955Z 14008KT 36/15 A3011 RMK A01 T03570145  RH  028%=      5-min Rain = 0
KSM2 201956Z 17006KT 36/15 A3011 RMK A01 T03560145  RH  028%=      5-min Rain = 0
KSM2 201957Z 17006KT 35/14 A3011 RMK A01 T03530143  RH  029%=      5-min Rain = 0
KSM2 201958Z 16005KT 35/14 A3011 RMK A01 T03500141  RH  029%=      5-min Rain = 0
KSM2 201959Z 16005KT 35/15 A3011 RMK A01 T03500145  RH  029%=      5-min Rain = 0
KSM2 202000Z 14005KT 35/15 A3011 RMK A01 T03540147  RH  029%=      5-min Rain = 0
KSM2 202001Z 16006KT 36/15 A3011 RMK A01 T03590152  RH  029%=      5-min Rain = 0
KSM2 202002Z 16007KT 36/15 A3011 RMK A01 T03610151  RH  029%=      5-min Rain = 0
KSM2 202003Z 14008KT 36/15 A3011 RMK A01 T03580146  RH  028%=      5-min Rain = 0
KSM2 202004Z 16010G16KT 36/15 A3011 RMK A01 T03550147  RH  029%=      5-min Rain = 0
KSM2 202005Z 17013KT 35/15 A3011 RMK A01 T03530148  RH  029%=      5-min Rain = 0
KSM2 202006Z 15007KT 35/15 A3011 RMK A01 T03500146  RH  029%=      5-min Rain = 0
KSM2 202007Z 14005KT 35/15 A3011 RMK A01 T03490146  RH  030%=      5-min Rain = 0
KSM2 202008Z 19008KT 35/15 A3011 RMK A01 T03500146  RH  029%=      5-min Rain = 0
KSM2 202009Z 21007KT 35/15 A3011 RMK A01 T03490146  RH  030%=      5-min Rain = 0
KSM2 202010Z 21005KT 35/14 A3011 RMK A01 T03470144  RH  030%=      5-min Rain = 0
KSM2 202011Z 15009KT 35/15 A3011 RMK A01 T03460146  RH  030%=      5-min Rain = 0
KSM2 202012Z 16010KT 35/15 A3011 RMK A01 T03500146  RH  030%=      5-min Rain = 0
KSM2 202013Z 18006KT 35/15 A3011 RMK A01 T03490146  RH  030%=      5-min Rain = 0
KSM2 202014Z 19005KT 35/15 A3011 RMK A01 T03470148  RH  030%=      5-min Rain = 0
KSM2 202015Z 18007G12KT 35/15 A3011 RMK A01 T03460150  RH  031%=      5-min Rain = 0
KSM2 202016Z 16012KT 35/15 A3011 RMK A01 T03470148  RH  030%=      5-min Rain = 0
KSM2 202017Z 18009KT 35/15 A3011 RMK A01 T03470147  RH  030%=      5-min Rain = 0
KSM2 202018Z 17012KT 35/15 A3011 RMK A01 T03480150  RH  031%=      5-min Rain = 0
KSM2 202019Z 17011KT 35/14 A3011 RMK A01 T03500144  RH  029%=      5-min Rain = 0
KSM2 202020Z 16012KT 35/15 A3011 RMK A01 T03500146  RH  030%=      5-min Rain = 0
KSM2 202021Z 16011G16KT 35/14 A3011 RMK A01 T03490143  RH  029%=      5-min Rain = 0
KSM2 202022Z 15010KT 35/14 A3011 RMK A01 T03510141  RH  028%=      5-min Rain = 0
KSM2 202023Z 14010KT 35/14 A3011 RMK A01 T03520139  RH  028%=      5-min Rain = 0
KSM2 202024Z 16006KT 35/14 A301 RMK A01 T03520141  RH  028%=      5-min Rain = 0
KSM2 202025Z 14007KT 35/14 A301 RMK A01 T03510141  RH  028%=      5-min Rain = 0
KSM2 202026Z 13007KT 35/14 A301 RMK A01 T03480142  RH  029%=      5-min Rain = 0
KSM2 202027Z 14007KT 35/14 A301 RMK A01 T03490138  RH  028%=      5-min Rain = 0
KSM2 202028Z 13004KT 35/14 A301 RMK A01 T03490139  RH  028%=      5-min Rain = 0
KSM2 202029Z 14003KT 35/14 A301 RMK A01 T03510143  RH  029%=      5-min Rain = 0
KSM2 202030Z 16003KT 36/14 A301 RMK A01 T03550138  RH  027%=      5-min Rain = 0
KSM2 202031Z 14004KT 36/14 A301 RMK A01 T03550139  RH  028%=      5-min Rain = 0
KSM2 202032Z 16010KT 36/14 A301 RMK A01 T03550141  RH  028%=      5-min Rain = 0
KSM2 202033Z 12008KT 36/14 A301 RMK A01 T03570136  RH  027%=      5-min Rain = 0
KSM2 202034Z 13006KT 36/13 A301 RMK A01 T03580134  RH  026%=      5-min Rain = 0
KSM2 202035Z 11007KT 36/14 A301 RMK A01 T03580137  RH  027%=      5-min Rain = 0
KSM2 202036Z 11004KT 36/14 A301 RMK A01 T03610140  RH  027%=      5-min Rain = 0
KSM2 202037Z 16004KT 36/14 A301 RMK A01 T03620141  RH  027%=      5-min Rain = 0
KSM2 202038Z 15008KT 36/14 A301 RMK A01 T03620143  RH  027%=      5-min Rain = 0
KSM2 202039Z 14007KT 36/14 A301 RMK A01 T03590143  RH  028%=      5-min Rain = 0
KSM2 202040Z 14006KT 36/14 A301 RMK A01 T03600137  RH  027%=      5-min Rain = 0
KSM2 202041Z 13006KT 36/14 A301 RMK A01 T03590138  RH  027%=      5-min Rain = 0
KSM2 202042Z 13007KT 36/14 A301 RMK A01 T03580139  RH  027%=      5-min Rain = 0
KSM2 202043Z 11008KT 36/14 A301 RMK A01 T03580139  RH  027%=      5-min Rain = 0
KSM2 202044Z 13007KT 36/14 A301 RMK A01 T03590135  RH  026%=      5-min Rain = 0
KSM2 202045Z 13008KT 36/14 A301 RMK A01 T03610136  RH  026%=      5-min Rain = 0
KSM2 202046Z 12006KT 36/13 A3009 RMK A01 T03630133  RH  025%=      5-min Rain = 0
KSM2 202047Z 13007KT 37/13 A3009 RMK A01 T03650134  RH  025%=      5-min Rain = 0
KSM2 202048Z 15007KT 37/13 A301 RMK A01 T03660133  RH  025%=      5-min Rain = 0
KSM2 202049Z 13004KT 36/14 A3009 RMK A01 T03600137  RH  026%=      5-min Rain = 0
KSM2 202050Z 14004KT 36/14 A3009 RMK A01 T03600135  RH  026%=      5-min Rain = 0
KSM2 202051Z 17002KT 36/13 A3009 RMK A01 T03600134  RH  026%=      5-min Rain = 0
KSM2 202052Z 22004KT 36/13 A3009 RMK A01 T03590134  RH  026%=      5-min Rain = 0
KSM2 202053Z 20004KT 36/14 A3009 RMK A01 T03570135  RH  026%=      5-min Rain = 0
KSM2 202054Z 22004KT 36/14 A3009 RMK A01 T03560140  RH  027%=      5-min Rain = 0
KSM2 202055Z 17009KT 36/14 A3009 RMK A01 T03590142  RH  027%=      5-min Rain = 0
KSM2 202056Z 17011KT 36/14 A3009 RMK A01 T03590137  RH  027%=      5-min Rain = 0
KSM2 202057Z 19008KT 36/14 A3009 RMK A01 T03580137  RH  027%=      5-min Rain = 0
KSM2 202058Z 20009KT 36/14 A3009 RMK A01 T03570136  RH  027%=      5-min Rain = 0
KSM2 202059Z 16012KT 35/14 A3009 RMK A01 T03540138  RH  027%=      5-min Rain = 0
KSM2 202100Z 15013KT 36/13 A3009 RMK A01 T03570133  RH  026%=      5-min Rain = 0
KSM2 202101Z 17010KT 36/14 A3009 RMK A01 T03560135  RH  027%=      5-min Rain = 0
KSM2 202102Z 16008KT 35/14 A3009 RMK A01 T03540135  RH  027%=      5-min Rain = 0
KSM2 202103Z 18007KT 35/13 A3009 RMK A01 T03530134  RH  027%=      5-min Rain = 0
KSM2 202104Z 19005KT 35/14 A3009 RMK A01 T03520137  RH  028%=      5-min Rain = 0
KSM2 202105Z 18005KT 35/14 A3009 RMK A01 T03500137  RH  028%=      5-min Rain = 0
KSM2 202106Z 16007KT 35/14 A3009 RMK A01 T03500140  RH  028%=      5-min Rain = 0
KSM2 202107Z 17005KT 35/14 A3009 RMK A01 T03510138  RH  028%=      5-min Rain = 0
KSM2 202108Z 15007KT 35/14 A3009 RMK A01 T03520140  RH  028%=      5-min Rain = 0
KSM2 202109Z 12006KT 35/14 A3009 RMK A01 T03530136  RH  027%=      5-min Rain = 0
KSM2 202110Z 11006KT 36/14 A3008 RMK A01 T03570137  RH  027%=      5-min Rain = 0
KSM2 202111Z 14007KT 36/14 A3008 RMK A01 T03630140  RH  026%=      5-min Rain = 0
KSM2 202112Z 13010KT 36/13 A3008 RMK A01 T03630133  RH  025%=      5-min Rain = 0
KSM2 202113Z 13007KT 36/13 A3008 RMK A01 T03590129  RH  025%=      5-min Rain = 0
KSM2 202114Z 18008KT 36/13 A3008 RMK A01 T03590133  RH  026%=      5-min Rain = 0
KSM2 202115Z 18010KT 36/13 A3008 RMK A01 T03590131  RH  026%=      5-min Rain = 0
KSM2 202116Z 17006KT 36/13 A3008 RMK A01 T03560129  RH  026%=      5-min Rain = 0
KSM2 202117Z 18006KT 36/13 A3008 RMK A01 T03560131  RH  026%=      5-min Rain = 0
KSM2 202118Z 17009KT 36/13 A3008 RMK A01 T03560134  RH  026%=      5-min Rain = 0
KSM2 202119Z 18010KT 36/14 A3008 RMK A01 T03550140  RH  028%=      5-min Rain = 0
KSM2 202120Z 17008KT 35/14 A3008 RMK A01 T03530139  RH  028%=      5-min Rain = 0
KSM2 202121Z 17010KT 35/14 A3008 RMK A01 T03530144  RH  029%=      5-min Rain = 0
KSM2 202122Z 15008KT 35/15 A3008 RMK A01 T03540146  RH  029%=      5-min Rain = 0
KSM2 202123Z 14007KT 36/14 A3008 RMK A01 T03550144  RH  028%=      5-min Rain = 0
KSM2 202124Z 15006KT 36/14 A3008 RMK A01 T03560144  RH  028%=      5-min Rain = 0
KSM2 202125Z 12005KT 36/14 A3008 RMK A01 T03560143  RH  028%=      5-min Rain = 0
KSM2 202126Z 12006KT 36/14 A3008 RMK A01 T03580141  RH  027%=      5-min Rain = 0
KSM2 202127Z 13006KT 36/14 A3008 RMK A01 T03580138  RH  027%=      5-min Rain = 0
KSM2 202128Z 16006KT 36/14 A3008 RMK A01 T03590139  RH  027%=      5-min Rain = 0
KSM2 202129Z 16009KT 36/14 A3008 RMK A01 T03580137  RH  027%=      5-min Rain = 0
KSM2 202130Z 16012KT 36/14 A3008 RMK A01 T03580136  RH  027%=      5-min Rain = 0
KSM2 202131Z 16012KT 36/14 A3007 RMK A01 T03580136  RH  026%=      5-min Rain = 0
KSM2 202132Z 18012KT 36/14 A3008 RMK A01 T03580139  RH  027%=      5-min Rain = 0
KSM2 202133Z 16011KT 36/14 A3008 RMK A01 T03550138  RH  027%=      5-min Rain = 0
KSM2 202134Z 17010KT 35/14 A3008 RMK A01 T03520138  RH  028%=      5-min Rain = 0
KSM2 202135Z 17012KT 35/14 A3008 RMK A01 T03490137  RH  028%=      5-min Rain = 0
KSM2 202136Z 17009KT 35/14 A3008 RMK A01 T03460137  RH  028%=      5-min Rain = 0
KSM2 202137Z 18007KT 34/14 A3007 RMK A01 T03440138  RH  029%=      5-min Rain = 0
KSM2 202138Z 17008KT 34/14 A3007 RMK A01 T03440139  RH  029%=      5-min Rain = 0
KSM2 202139Z 19008KT 35/14 A3007 RMK A01 T03450136  RH  028%=      5-min Rain = 0
KSM2 202140Z 20009KT 35/14 A3007 RMK A01 T03450135  RH  028%=      5-min Rain = 0
KSM2 202141Z 17008KT 34/14 A3007 RMK A01 T03440135  RH  028%=      5-min Rain = 0
KSM2 202142Z 16009KT 35/14 A3007 RMK A01 T03450137  RH  029%=      5-min Rain = 0
KSM2 202143Z 15008KT 35/14 A3007 RMK A01 T03470135  RH  028%=      5-min Rain = 0
KSM2 202144Z 16009KT 35/13 A3007 RMK A01 T03470130  RH  027%=      5-min Rain = 0
KSM2 202145Z 15008KT 35/13 A3007 RMK A01 T03470127  RH  027%=      5-min Rain = 0
KSM2 202146Z 15007KT 35/13 A3007 RMK A01 T03470128  RH  027%=      5-min Rain = 0
KSM2 202147Z 14010KT 35/13 A3007 RMK A01 T03470127  RH  026%=      5-min Rain = 0
KSM2 202148Z 13009KT 35/13 A3007 RMK A01 T03470125  RH  026%=      5-min Rain = 0
KSM2 202149Z 14008KT 35/12 A3007 RMK A01 T03480124  RH  026%=      5-min Rain = 0
KSM2 202150Z 13010KT 35/12 A3007 RMK A01 T03470123  RH  026%=      5-min Rain = 0
KSM2 202151Z 12009KT 35/12 A3007 RMK A01 T03460121  RH  026%=      5-min Rain = 0
KSM2 202152Z 10010KT 35/12 A3007 RMK A01 T03460121  RH  026%=      5-min Rain = 0
KSM2 202153Z 11008KT 35/12 A3007 RMK A01 T03460120  RH  025%=      5-min Rain = 0
KSM2 202154Z 12009KT 35/12 A3007 RMK A01 T03460121  RH  026%=      5-min Rain = 0
KSM2 202155Z 14007KT 35/12 A3007 RMK A01 T03460122  RH  026%=      5-min Rain = 0
KSM2 202156Z 17007KT 35/13 A3007 RMK A01 T03460125  RH  026%=      5-min Rain = 0
KSM2 202157Z 16008KT 35/12 A3007 RMK A01 T03450124  RH  026%=      5-min Rain = 0
KSM2 202158Z 15007KT 34/12 A3007 RMK A01 T03440121  RH  026%=      5-min Rain = 0
KSM2 202159Z 15006KT 34/12 A3007 RMK A01 T03440119  RH  026%=      5-min Rain = 0
KSM2 202200Z 14005KT 34/12 A3007 RMK A01 T03440117  RH  025%=      5-min Rain = 0
KSM2 202201Z 14005KT 34/12 A3007 RMK A01 T03440119  RH  025%=      5-min Rain = 0
KSM2 202202Z 15006KT 35/12 A3007 RMK A01 T03450117  RH  025%=      5-min Rain = 0
KSM2 202203Z 15005KT 35/12 A3007 RMK A01 T03460117  RH  025%=      5-min Rain = 0
KSM2 202204Z 16006KT 35/12 A3007 RMK A01 T03460120  RH  025%=      5-min Rain = 0
KSM2 202205Z 15005KT 35/12 A3007 RMK A01 T03470120  RH  025%=      5-min Rain = 0
KSM2 202206Z 14008KT 35/12 A3007 RMK A01 T03490119  RH  025%=      5-min Rain = 0
KSM2 202207Z 15007KT 35/12 A3007 RMK A01 T03490118  RH  025%=      5-min Rain = 0
KSM2 202208Z 15005KT 35/12 A3006 RMK A01 T03480120  RH  025%=      5-min Rain = 0
KSM2 202209Z 18007KT 35/12 A3006 RMK A01 T03480122  RH  026%=      5-min Rain = 0
KSM2 202210Z 18006KT 35/13 A3006 RMK A01 T03470125  RH  026%=      5-min Rain = 0
KSM2 202211Z 16006KT 35/13 A3006 RMK A01 T03480125  RH  026%=      5-min Rain = 0
KSM2 202212Z 16007KT 35/13 A3006 RMK A01 T03480125  RH  026%=      5-min Rain = 0
KSM2 202213Z 14007KT 35/13 A3006 RMK A01 T03490126  RH  026%=      5-min Rain = 0
KSM2 202214Z 14005KT 35/13 A3006 RMK A01 T03490125  RH  026%=      5-min Rain = 0
KSM2 202215Z 13004KT 35/12 A3006 RMK A01 T03490124  RH  026%=      5-min Rain = 0
KSM2 202216Z 17004KT 35/13 A3006 RMK A01 T03500125  RH  026%=      5-min Rain = 0
KSM2 202217Z 14005KT 35/12 A3006 RMK A01 T03510124  RH  026%=      5-min Rain = 0
KSM2 202218Z 12008KT 35/12 A3006 RMK A01 T03520124  RH  025%=      5-min Rain = 0
KSM2 202219Z 17006KT 35/13 A3006 RMK A01 T03540128  RH  026%=      5-min Rain = 0
KSM2 202220Z 17009KT 35/13 A3006 RMK A01 T03540132  RH  026%=      5-min Rain = 0
KSM2 202221Z 16006KT 35/13 A3006 RMK A01 T03530134  RH  027%=      5-min Rain = 0
KSM2 202222Z 18005KT 35/13 A3006 RMK A01 T03530134  RH  027%=      5-min Rain = 0
KSM2 202223Z 18010KT 36/13 A3006 RMK A01 T03550133  RH  026%=      5-min Rain = 0
KSM2 202224Z 15011KT 36/13 A3006 RMK A01 T03550133  RH  026%=      5-min Rain = 0
KSM2 202225Z 14008KT 35/13 A3006 RMK A01 T03530131  RH  026%=      5-min Rain = 0
KSM2 202226Z 15006KT 35/13 A3006 RMK A01 T03520131  RH  026%=      5-min Rain = 0
KSM2 202227Z 17004KT 35/13 A3006 RMK A01 T03530133  RH  027%=      5-min Rain = 0
KSM2 202228Z 19006KT 36/14 A3006 RMK A01 T03560136  RH  027%=      5-min Rain = 0
KSM2 202229Z 18007KT 36/13 A3006 RMK A01 T03590134  RH  026%=      5-min Rain = 0
KSM2 202230Z 20008KT 36/13 A3006 RMK A01 T03590134  RH  026%=      5-min Rain = 0
KSM2 202231Z 19010KT 36/13 A3006 RMK A01 T03570133  RH  026%=      5-min Rain = 0
KSM2 202232Z 20010KT 36/13 A3006 RMK A01 T03550133  RH  026%=      5-min Rain = 0
KSM2 202233Z 19010KT 36/14 A3006 RMK A01 T03550135  RH  027%=      5-min Rain = 0
KSM2 202234Z 18011KT 35/13 A3006 RMK A01 T03540134  RH  027%=      5-min Rain = 0
KSM2 202235Z 20010G16KT 35/14 A3005 RMK A01 T03510135  RH  027%=      5-min Rain = 0
KSM2 202236Z 15013G23KT 35/14 A3005 RMK A01 T03520137  RH  027%=      5-min Rain = 0
KSM2 202237Z 13011KT 36/13 A3005 RMK A01 T03560134  RH  026%=      5-min Rain = 0
KSM2 202238Z 15009KT 36/14 A3005 RMK A01 T03550135  RH  027%=      5-min Rain = 0
KSM2 202239Z 16011KT 36/14 A3005 RMK A01 T03550136  RH  027%=      5-min Rain = 0
KSM2 202240Z 16009KT 36/14 A3005 RMK A01 T03570135  RH  026%=      5-min Rain = 0
KSM2 202241Z 17008KT 36/13 A3005 RMK A01 T03560134  RH  026%=      5-min Rain = 0
KSM2 202242Z 19007KT 36/13 A3005 RMK A01 T03560134  RH  026%=      5-min Rain = 0
KSM2 202243Z 17007KT 35/13 A3005 RMK A01 T03540134  RH  027%=      5-min Rain = 0
KSM2 202244Z 15007KT 35/13 A3005 RMK A01 T03530134  RH  027%=      5-min Rain = 0
KSM2 202245Z 14012G17KT 36/13 A3005 RMK A01 T03560134  RH  027%=      5-min Rain = 0
KSM2 202246Z 16012KT 36/14 A3005 RMK A01 T03560135  RH  027%=      5-min Rain = 0
KSM2 202247Z 16009KT 36/14 A3005 RMK A01 T03550137  RH  027%=      5-min Rain = 0
KSM2 202248Z 14009KT 36/14 A3005 RMK A01 T03550136  RH  027%=      5-min Rain = 0
KSM2 202249Z 17008KT 36/13 A3005 RMK A01 T03550134  RH  027%=      5-min Rain = 0
KSM2 202250Z 15006KT 35/13 A3005 RMK A01 T03520134  RH  027%=      5-min Rain = 0
KSM2 202251Z 15006KT 35/13 A3005 RMK A01 T03500134  RH  027%=      5-min Rain = 0
KSM2 202252Z 19008KT 35/13 A3005 RMK A01 T03500134  RH  027%=      5-min Rain = 0
KSM2 202253Z 19009KT 35/13 A3005 RMK A01 T03500133  RH  027%=      5-min Rain = 0
KSM2 202254Z 16007KT 35/13 A3005 RMK A01 T03480134  RH  028%=      5-min Rain = 0
KSM2 202255Z 14007KT 35/13 A3005 RMK A01 T03480134  RH  028%=      5-min Rain = 0
KSM2 202256Z 14008KT 35/14 A3005 RMK A01 T03500135  RH  027%=      5-min Rain = 0
KSM2 202257Z 13007KT 35/14 A3005 RMK A01 T03510136  RH  027%=      5-min Rain = 0
KSM2 202258Z 14007KT 35/14 A3005 RMK A01 T03510137  RH  028%=      5-min Rain = 0
KSM2 202259Z 17007KT 35/14 A3005 RMK A01 T03510139  RH  028%=      5-min Rain = 0
KSM2 202300Z 17008KT 35/14 A3005 RMK A01 T03510138  RH  028%=      5-min Rain = 0
KSM2 202301Z 16009KT 35/14 A3005 RMK A01 T03490137  RH  028%=      5-min Rain = 0
KSM2 202302Z 17009KT 35/14 A3005 RMK A01 T03490138  RH  028%=      5-min Rain = 0
KSM2 202303Z 17008KT 35/14 A3005 RMK A01 T03510139  RH  028%=      5-min Rain = 0
KSM2 202304Z 16006KT 35/14 A3005 RMK A01 T03520137  RH  028%=      5-min Rain = 0
KSM2 202305Z 16010KT 36/14 A3005 RMK A01 T03550137  RH  027%=      5-min Rain = 0
KSM2 202306Z 17008KT 36/14 A3005 RMK A01 T03560137  RH  027%=      5-min Rain = 0
KSM2 202307Z 17007KT 36/14 A3005 RMK A01 T03560137  RH  027%=      5-min Rain = 0
KSM2 202308Z 16008KT 36/14 A3005 RMK A01 T03570136  RH  027%=      5-min Rain = 0
KSM2 202309Z 15008KT 36/14 A3005 RMK A01 T03580135  RH  026%=      5-min Rain = 0
KSM2 202310Z 14005KT 36/14 A3005 RMK A01 T03580138  RH  027%=      5-min Rain = 0
KSM2 202311Z 14009KT 36/14 A3005 RMK A01 T03590137  RH  026%=      5-min Rain = 0
KSM2 202312Z 15008KT 36/14 A3005 RMK A01 T03560135  RH  027%=      5-min Rain = 0
KSM2 202313Z 16008G13KT 35/14 A3006 RMK A01 T03530136  RH  027%=      5-min Rain = 0
KSM2 202314Z 15011KT 35/14 A3006 RMK A01 T03510135  RH  027%=      5-min Rain = 0
KSM2 202315Z 16009KT 35/14 A3006 RMK A01 T03490136  RH  028%=      5-min Rain = 0
KSM2 202316Z 16010KT 35/14 A3006 RMK A01 T03480137  RH  028%=      5-min Rain = 0
KSM2 202317Z 15010KT 35/14 A3006 RMK A01 T03470137  RH  028%=      5-min Rain = 0
KSM2 202318Z 13010KT 35/14 A3006 RMK A01 T03460136  RH  028%=      5-min Rain = 0
KSM2 202319Z 14009KT 35/13 A3006 RMK A01 T03460134  RH  028%=      5-min Rain = 0
KSM2 202320Z 15010KT 35/13 A3006 RMK A01 T03450132  RH  028%=      5-min Rain = 0
KSM2 202321Z 14009KT 35/13 A3006 RMK A01 T03450133  RH  028%=      5-min Rain = 0
KSM2 202322Z 16007KT 34/13 A3005 RMK A01 T03440133  RH  028%=      5-min Rain = 0
KSM2 202323Z 16006KT 34/14 A3005 RMK A01 T03440135  RH  028%=      5-min Rain = 0
KSM2 202324Z 16007KT 34/13 A3005 RMK A01 T03440134  RH  028%=      5-min Rain = 0
KSM2 202325Z 16011KT 34/13 A3005 RMK A01 T03440132  RH  028%=      5-min Rain = 0
KSM2 202326Z 16010KT 35/13 A3005 RMK A01 T03450128  RH  027%=      5-min Rain = 0
KSM2 202327Z 15009KT 35/13 A3005 RMK A01 T03450126  RH  027%=      5-min Rain = 0
KSM2 202328Z 16008KT 35/13 A3005 RMK A01 T03450127  RH  027%=      5-min Rain = 0
KSM2 202329Z 15008KT 35/13 A3005 RMK A01 T03450129  RH  027%=      5-min Rain = 0
KSM2 202330Z 13009KT 35/13 A3005 RMK A01 T03450130  RH  027%=      5-min Rain = 0
KSM2 202331Z 15007KT 35/13 A3005 RMK A01 T03450131  RH  028%=      5-min Rain = 0
KSM2 202332Z 17006KT 35/13 A3005 RMK A01 T03450132  RH  028%=      5-min Rain = 0
KSM2 202333Z 17005KT 35/13 A3005 RMK A01 T03450134  RH  028%=      5-min Rain = 0
KSM2 202334Z 16006KT 35/14 A3005 RMK A01 T03450136  RH  028%=      5-min Rain = 0
KSM2 202335Z 16008KT 35/14 A3005 RMK A01 T03460135  RH  028%=      5-min Rain = 0
KSM2 202336Z 16010KT 35/14 A3005 RMK A01 T03460136  RH  028%=      5-min Rain = 0
KSM2 202337Z 16009KT 35/14 A3005 RMK A01 T03460137  RH  029%=      5-min Rain = 0
KSM2 202338Z 15006KT 35/14 A3005 RMK A01 T03450140  RH  029%=      5-min Rain = 0
KSM2 202339Z 16008KT 35/14 A3006 RMK A01 T03450139  RH  029%=      5-min Rain = 0
KSM2 202340Z 17009KT 35/14 A3006 RMK A01 T03450136  RH  029%=      5-min Rain = 0
KSM2 202341Z 17008KT 34/14 A3006 RMK A01 T03440136  RH  028%=      5-min Rain = 0
KSM2 202342Z 16005KT 34/14 A3006 RMK A01 T03440136  RH  029%=      5-min Rain = 0
KSM2 202343Z 18007KT 34/14 A3006 RMK A01 T03430136  RH  029%=      5-min Rain = 0
KSM2 202344Z 18009KT 34/14 A3006 RMK A01 T03430137  RH  029%=      5-min Rain = 0
KSM2 202345Z 17012KT 34/14 A3006 RMK A01 T03430138  RH  029%=      5-min Rain = 0
KSM2 202346Z 16011KT 34/14 A3006 RMK A01 T03420138  RH  029%=      5-min Rain = 0
KSM2 202347Z 16010KT 34/14 A3006 RMK A01 T03410138  RH  029%=      5-min Rain = 0
KSM2 202348Z 16010KT 34/14 A3006 RMK A01 T03410136  RH  029%=      5-min Rain = 0
KSM2 202349Z 15008KT 34/14 A3006 RMK A01 T03410138  RH  029%=      5-min Rain = 0
KSM2 202350Z 16008KT 34/14 A3006 RMK A01 T03410139  RH  030%=      5-min Rain = 0
KSM2 202351Z 15009KT 34/14 A3006 RMK A01 T03400137  RH  029%=      5-min Rain = 0
KSM2 202352Z 15009KT 34/14 A3006 RMK A01 T03400137  RH  029%=      5-min Rain = 0
KSM2 202353Z 15008KT 34/14 A3006 RMK A01 T03400136  RH  029%=      5-min Rain = 0
KSM2 202354Z 16010KT 34/14 A3006 RMK A01 T03400135  RH  029%=      5-min Rain = 0
KSM2 202355Z 15009KT 34/14 A3006 RMK A01 T03400135  RH  029%=      5-min Rain = 0
KSM2 202356Z 15008KT 34/13 A3006 RMK A01 T03390133  RH  029%=      5-min Rain = 0
KSM2 202357Z 16008KT 34/13 A3006 RMK A01 T03390132  RH  029%=      5-min Rain = 0
KSM2 202358Z 15007KT 34/13 A3006 RMK A01 T03390132  RH  029%=      5-min Rain = 0
KSM2 202359Z 16006KT 34/13 A3006 RMK A01 T03390132  RH  029%=      5-min Rain = 0
KSM2 210000Z 16008KT 34/13 A3006 RMK A01 T03380132  RH  029%=      5-min Rain = 0
KSM2 210001Z 16007KT 34/13 A3006 RMK A01 T03380131  RH  029%=      5-min Rain = 0
KSM2 210002Z 17008KT 34/13 A3006 RMK A01 T03380130  RH  028%=      5-min Rain = 0
KSM2 210003Z 17007KT 34/13 A3006 RMK A01 T03380129  RH  028%=      5-min Rain = 0
KSM2 210004Z 15005KT 34/13 A3006 RMK A01 T03380129  RH  028%=      5-min Rain = 0
KSM2 210005Z 16005KT 34/13 A3006 RMK A01 T03380129  RH  028%=      5-min Rain = 0
KSM2 210006Z 16008KT 34/13 A3006 RMK A01 T03380127  RH  028%=      5-min Rain = 0
KSM2 210007Z 16006KT 34/13 A3006 RMK A01 T03380128  RH  028%=      5-min Rain = 0
KSM2 210008Z 16006KT 34/13 A3006 RMK A01 T03370126  RH  028%=      5-min Rain = 0
KSM2 210009Z 16006KT 34/13 A3006 RMK A01 T03370125  RH  028%=      5-min Rain = 0
KSM2 210010Z 18006KT 34/13 A3006 RMK A01 T03370126  RH  028%=      5-min Rain = 0
KSM2 210011Z 16005KT 34/13 A3006 RMK A01 T03370128  RH  028%=      5-min Rain = 0
KSM2 210012Z 15007KT 34/13 A3006 RMK A01 T03370127  RH  028%=      5-min Rain = 0
KSM2 210013Z 16006KT 34/13 A3006 RMK A01 T03370128  RH  028%=      5-min Rain = 0
KSM2 210014Z 17005KT 34/13 A3006 RMK A01 T03360131  RH  029%=      5-min Rain = 0
KSM2 210015Z 16005KT 34/13 A3006 RMK A01 T03350130  RH  029%=      5-min Rain = 0
KSM2 210016Z 16007KT 34/13 A3006 RMK A01 T03350129  RH  029%=      5-min Rain = 0
KSM2 210017Z 17007KT 34/13 A3006 RMK A01 T03350129  RH  029%=      5-min Rain = 0
KSM2 210018Z 17006KT 34/13 A3006 RMK A01 T03350129  RH  029%=      5-min Rain = 0
KSM2 210019Z 17006KT 33/13 A3006 RMK A01 T03340128  RH  029%=      5-min Rain = 0
KSM2 210020Z 17006KT 33/13 A3006 RMK A01 T03340128  RH  029%=      5-min Rain = 0
KSM2 210021Z 18004KT 33/13 A3006 RMK A01 T03340129  RH  029%=      5-min Rain = 0
KSM2 210022Z 19004KT 33/13 A3006 RMK A01 T03340131  RH  029%=      5-min Rain = 0
KSM2 210023Z 18006KT 33/13 A3006 RMK A01 T03340132  RH  030%=      5-min Rain = 0
KSM2 210024Z 18006KT 33/13 A3006 RMK A01 T03330130  RH  029%=      5-min Rain = 0
KSM2 210025Z 17004KT 33/13 A3006 RMK A01 T03330131  RH  029%=      5-min Rain = 0
KSM2 210026Z 18005KT 33/13 A3006 RMK A01 T03330131  RH  030%=      5-min Rain = 0
KSM2 210027Z 17004KT 33/13 A3006 RMK A01 T03320131  RH  030%=      5-min Rain = 0
KSM2 210028Z 17005KT 33/13 A3006 RMK A01 T03320133  RH  030%=      5-min Rain = 0
KSM2 210029Z 17004KT 33/13 A3006 RMK A01 T03320134  RH  030%=      5-min Rain = 0
KSM2 210030Z 17004KT 33/14 A3006 RMK A01 T03310135  RH  030%=      5-min Rain = 0
KSM2 210031Z 17006KT 33/13 A3006 RMK A01 T03310133  RH  030%=      5-min Rain = 0
KSM2 210032Z 17005KT 33/13 A3006 RMK A01 T03310131  RH  030%=      5-min Rain = 0
KSM2 210033Z 16005KT 33/13 A3006 RMK A01 T03320134  RH  030%=      5-min Rain = 0
KSM2 210034Z 18004KT 33/13 A3006 RMK A01 T03320133  RH  030%=      5-min Rain = 0
KSM2 210035Z 17004KT 33/13 A3006 RMK A01 T03320134  RH  030%=      5-min Rain = 0
KSM2 210036Z 17005KT 33/14 A3006 RMK A01 T03310136  RH  031%=      5-min Rain = 0
KSM2 210037Z 16005KT 33/14 A3006 RMK A01 T03300136  RH  031%=      5-min Rain = 0
KSM2 210038Z 16006KT 33/13 A3006 RMK A01 T03290133  RH  030%=      5-min Rain = 0
KSM2 210039Z 17005KT 33/13 A3006 RMK A01 T03290133  RH  030%=      5-min Rain = 0
KSM2 210040Z 17005KT 33/14 A3006 RMK A01 T03290136  RH  031%=      5-min Rain = 0
KSM2 210041Z 16005KT 33/13 A3006 RMK A01 T03290134  RH  031%=      5-min Rain = 0
KSM2 210042Z 16004KT 33/14 A3006 RMK A01 T03290137  RH  031%=      5-min Rain = 0
KSM2 210043Z 16006KT 33/13 A3006 RMK A01 T03280134  RH  031%=      5-min Rain = 0
KSM2 210044Z 17004KT 33/13 A3006 RMK A01 T03280134  RH  031%=      5-min Rain = 0
KSM2 210045Z 16007KT 33/13 A3006 RMK A01 T03280134  RH  031%=      5-min Rain = 0
KSM2 210046Z 16006KT 33/14 A3006 RMK A01 T03280136  RH  031%=      5-min Rain = 0
KSM2 210047Z 16006KT 33/14 A3006 RMK A01 T03270136  RH  031%=      5-min Rain = 0
KSM2 210048Z 15006KT 33/14 A3006 RMK A01 T03270135  RH  031%=      5-min Rain = 0
KSM2 210049Z 16004KT 33/14 A3006 RMK A01 T03260139  RH  032%=      5-min Rain = 0
KSM2 210050Z 16005KT 33/14 A3006 RMK A01 T03260137  RH  032%=      5-min Rain = 0
KSM2 210051Z 15006KT 33/14 A3006 RMK A01 T03260137  RH  032%=      5-min Rain = 0
KSM2 210052Z 16004KT 33/14 A3007 RMK A01 T03260137  RH  032%=      5-min Rain = 0
KSM2 210053Z 16005KT 33/14 A3007 RMK A01 T03260140  RH  033%=      5-min Rain = 0
KSM2 210054Z 16006KT 33/14 A3007 RMK A01 T03250138  RH  032%=      5-min Rain = 0
KSM2 210055Z 16007KT 33/13 A3007 RMK A01 T03250134  RH  031%=      5-min Rain = 0
KSM2 210056Z 15006KT 33/14 A3006 RMK A01 T03260135  RH  031%=      5-min Rain = 0
KSM2 210057Z 16006KT 33/14 A3006 RMK A01 T03260135  RH  031%=      5-min Rain = 0
KSM2 210058Z 15006KT 33/13 A3006 RMK A01 T03270134  RH  031%=      5-min Rain = 0
KSM2 210059Z 15006KT 33/13 A3006 RMK A01 T03270133  RH  031%=      5-min Rain = 0
KSM2 210100Z 15006KT 33/13 A3006 RMK A01 T03270133  RH  031%=      5-min Rain = 0
KSM2 210101Z 15006KT 33/13 A3006 RMK A01 T03280133  RH  031%=      5-min Rain = 0
KSM2 210102Z 15006KT 33/13 A3006 RMK A01 T03270133  RH  031%=      5-min Rain = 0
KSM2 210103Z 14006KT 33/13 A3006 RMK A01 T03270133  RH  031%=      5-min Rain = 0
KSM2 210104Z 14007KT 33/13 A3006 RMK A01 T03270133  RH  031%=      5-min Rain = 0
KSM2 210105Z 14007KT 33/13 A3007 RMK A01 T03270133  RH  031%=      5-min Rain = 0
KSM2 210106Z 14006KT 33/13 A3007 RMK A01 T03270133  RH  031%=      5-min Rain = 0
KSM2 210107Z 15006KT 33/13 A3007 RMK A01 T03260133  RH  031%=      5-min Rain = 0
KSM2 210108Z 14007KT 33/13 A3007 RMK A01 T03260134  RH  031%=      5-min Rain = 0
KSM2 210109Z 15007KT 33/13 A3007 RMK A01 T03250133  RH  031%=      5-min Rain = 0
KSM2 210110Z 14006KT 33/13 A3007 RMK A01 T03250133  RH  031%=      5-min Rain = 0
KSM2 210111Z 14006KT 33/13 A3007 RMK A01 T03250133  RH  031%=      5-min Rain = 0
KSM2 210112Z 13005KT 32/13 A3007 RMK A01 T03240133  RH  031%=      5-min Rain = 0
KSM2 210113Z 13004KT 32/13 A3007 RMK A01 T03240133  RH  031%=      5-min Rain = 0
KSM2 210114Z 13006KT 32/13 A3007 RMK A01 T03230133  RH  032%=      5-min Rain = 0
KSM2 210115Z 13006KT 32/13 A3007 RMK A01 T03230133  RH  032%=      5-min Rain = 0
KSM2 210116Z 13006KT 32/13 A3007 RMK A01 T03220132  RH  031%=      5-min Rain = 0
KSM2 210117Z 14006KT 32/13 A3007 RMK A01 T03220131  RH  031%=      5-min Rain = 0
KSM2 210118Z 13005KT 32/13 A3007 RMK A01 T03220131  RH  031%=      5-min Rain = 0
KSM2 210119Z 14005KT 32/13 A3007 RMK A01 T03220131  RH  031%=      5-min Rain = 0
KSM2 210120Z 13006KT 32/13 A3007 RMK A01 T03220130  RH  031%=      5-min Rain = 0
KSM2 210121Z 14006KT 32/13 A3007 RMK A01 T03210130  RH  031%=      5-min Rain = 0
KSM2 210122Z 14006KT 32/13 A3007 RMK A01 T03210129  RH  031%=      5-min Rain = 0
KSM2 210123Z 14007KT 32/13 A3007 RMK A01 T03220129  RH  031%=      5-min Rain = 0
KSM2 210124Z 14007KT 32/13 A3007 RMK A01 T03210128  RH  031%=      5-min Rain = 0
KSM2 210125Z 15005KT 32/13 A3007 RMK A01 T03210128  RH  031%=      5-min Rain = 0
KSM2 210126Z 15006KT 32/13 A3007 RMK A01 T03210129  RH  031%=      5-min Rain = 0
KSM2 210127Z 15006KT 32/13 A3007 RMK A01 T03210129  RH  031%=      5-min Rain = 0
KSM2 210128Z 14006KT 32/13 A3007 RMK A01 T03210129  RH  031%=      5-min Rain = 0
KSM2 210129Z 15006KT 32/13 A3007 RMK A01 T03200129  RH  031%=      5-min Rain = 0
KSM2 210130Z 15005KT 32/13 A3007 RMK A01 T03200129  RH  031%=      5-min Rain = 0
KSM2 210131Z 14006KT 32/13 A3007 RMK A01 T03190129  RH  031%=      5-min Rain = 0
KSM2 210132Z 15005KT 32/13 A3007 RMK A01 T03190129  RH  031%=      5-min Rain = 0
KSM2 210133Z 15005KT 32/13 A3007 RMK A01 T03190130  RH  032%=      5-min Rain = 0
KSM2 210134Z 14006KT 32/13 A3007 RMK A01 T03180130  RH  032%=      5-min Rain = 0
KSM2 210135Z 14005KT 32/13 A3007 RMK A01 T03180129  RH  032%=      5-min Rain = 0
KSM2 210136Z 15005KT 32/13 A3007 RMK A01 T03180130  RH  032%=      5-min Rain = 0
KSM2 210137Z 15004KT 32/13 A3007 RMK A01 T03180131  RH  032%=      5-min Rain = 0
KSM2 210138Z 15005KT 32/13 A3007 RMK A01 T03170130  RH  032%=      5-min Rain = 0
KSM2 210139Z 15004KT 32/13 A3007 RMK A01 T03160131  RH  032%=      5-min Rain = 0
KSM2 210140Z 15004KT 32/13 A3007 RMK A01 T03150132  RH  033%=      5-min Rain = 0
KSM2 210141Z 16005KT 32/13 A3007 RMK A01 T03150132  RH  033%=      5-min Rain = 0
KSM2 210142Z 16005KT 31/13 A3007 RMK A01 T03140132  RH  033%=      5-min Rain = 0
KSM2 210143Z 16006KT 31/13 A3007 RMK A01 T03140132  RH  033%=      5-min Rain = 0
KSM2 210144Z 15006KT 31/13 A3007 RMK A01 T03140131  RH  033%=      5-min Rain = 0
KSM2 210145Z 15006KT 31/13 A3007 RMK A01 T03140130  RH  033%=      5-min Rain = 0
KSM2 210146Z 15007KT 32/13 A3007 RMK A01 T03150130  RH  032%=      5-min Rain = 0
KSM2 210147Z 15006KT 31/13 A3008 RMK A01 T03140130  RH  032%=      5-min Rain = 0
KSM2 210148Z 15006KT 31/13 A3008 RMK A01 T03140130  RH  032%=      5-min Rain = 0
KSM2 210149Z 15006KT 31/13 A3008 RMK A01 T03140130  RH  033%=      5-min Rain = 0
KSM2 210150Z 15006KT 31/13 A3008 RMK A01 T03140130  RH  033%=      5-min Rain = 0
KSM2 210151Z 14005KT 31/13 A3008 RMK A01 T03130130  RH  033%=      5-min Rain = 0
KSM2 210152Z 14006KT 31/13 A3008 RMK A01 T03130130  RH  033%=      5-min Rain = 0
KSM2 210153Z 15006KT 31/13 A3008 RMK A01 T03120130  RH  033%=      5-min Rain = 0
KSM2 210154Z 14005KT 31/13 A3008 RMK A01 T03120131  RH  033%=      5-min Rain = 0
KSM2 210155Z 15006KT 31/13 A3008 RMK A01 T03110131  RH  033%=      5-min Rain = 0
KSM2 210156Z 14006KT 31/13 A3008 RMK A01 T03100131  RH  033%=      5-min Rain = 0
KSM2 210157Z 14007KT 31/13 A3008 RMK A01 T03100131  RH  033%=      5-min Rain = 0
KSM2 210158Z 14007KT 31/13 A3008 RMK A01 T03090130  RH  033%=      5-min Rain = 0
KSM2 210159Z 14006KT 31/13 A3008 RMK A01 T03090131  RH  034%=      5-min Rain = 0
KSM2 210200Z 14007KT 31/13 A3008 RMK A01 T03090131  RH  034%=      5-min Rain = 0
KSM2 210201Z 14007KT 31/13 A3008 RMK A01 T03080130  RH  034%=      5-min Rain = 0
KSM2 210202Z 15006KT 31/13 A3008 RMK A01 T03080130  RH  034%=      5-min Rain = 0
KSM2 210203Z 14006KT 31/13 A3008 RMK A01 T03080131  RH  034%=      5-min Rain = 0
KSM2 210204Z 14006KT 31/13 A3008 RMK A01 T03080130  RH  034%=      5-min Rain = 0
KSM2 210205Z 14006KT 31/13 A3008 RMK A01 T03070130  RH  034%=      5-min Rain = 0
KSM2 210206Z 14006KT 31/13 A3008 RMK A01 T03070130  RH  034%=      5-min Rain = 0
KSM2 210207Z 14005KT 31/13 A3008 RMK A01 T03070130  RH  034%=      5-min Rain = 0
KSM2 210208Z 14005KT 31/13 A3008 RMK A01 T03060130  RH  034%=      5-min Rain = 0
KSM2 210209Z 14006KT 31/13 A3008 RMK A01 T03050130  RH  034%=      5-min Rain = 0
KSM2 210210Z 14006KT 31/13 A3008 RMK A01 T03050130  RH  034%=      5-min Rain = 0
KSM2 210211Z 15006KT 31/13 A3008 RMK A01 T03050130  RH  034%=      5-min Rain = 0
KSM2 210212Z 15005KT 30/13 A3008 RMK A01 T03040129  RH  034%=      5-min Rain = 0
KSM2 210213Z 15006KT 30/13 A3008 RMK A01 T03040130  RH  034%=      5-min Rain = 0
KSM2 210214Z 15005KT 30/13 A3008 RMK A01 T03040131  RH  035%=      5-min Rain = 0
KSM2 210215Z 14005KT 30/13 A3008 RMK A01 T03030130  RH  035%=      5-min Rain = 0
KSM2 210216Z 15005KT 30/13 A3008 RMK A01 T03020130  RH  035%=      5-min Rain = 0
KSM2 210217Z 15006KT 30/13 A3008 RMK A01 T03020130  RH  035%=      5-min Rain = 0
KSM2 210218Z 15006KT 30/13 A3008 RMK A01 T03020130  RH  035%=      5-min Rain = 0
KSM2 210219Z 15005KT 30/13 A3008 RMK A01 T03010130  RH  035%=      5-min Rain = 0
KSM2 210220Z 15005KT 30/13 A3008 RMK A01 T03010130  RH  035%=      5-min Rain = 0
KSM2 210221Z 15005KT 30/13 A3008 RMK A01 T03000131  RH  035%=      5-min Rain = 0
KSM2 210222Z 15005KT 30/13 A3008 RMK A01 T03000130  RH  035%=      5-min Rain = 0
KSM2 210223Z 15005KT 30/13 A3008 RMK A01 T02990130  RH  035%=      5-min Rain = 0
KSM2 210224Z 15004KT 30/13 A3008 RMK A01 T02990131  RH  036%=      5-min Rain = 0
KSM2 210225Z 14004KT 30/13 A3008 RMK A01 T02980130  RH  036%=      5-min Rain = 0
KSM2 210226Z 15004KT 30/13 A3009 RMK A01 T02980130  RH  036%=      5-min Rain = 0
KSM2 210227Z 15005KT 30/13 A3009 RMK A01 T02970129  RH  036%=      5-min Rain = 0
KSM2 210228Z 15005KT 30/13 A3009 RMK A01 T02970128  RH  035%=      5-min Rain = 0
KSM2 210229Z 15005KT 30/13 A3009 RMK A01 T02970127  RH  035%=      5-min Rain = 0
KSM2 210230Z 15006KT 30/13 A3009 RMK A01 T02970127  RH  035%=      5-min Rain = 0
KSM2 210231Z 16007KT 30/13 A3009 RMK A01 T02970126  RH  035%=      5-min Rain = 0
KSM2 210232Z 16006KT 30/13 A3009 RMK A01 T02970126  RH  035%=      5-min Rain = 0
KSM2 210233Z 17006KT 30/13 A3009 RMK A01 T02970126  RH  035%=      5-min Rain = 0
KSM2 210234Z 16005KT 30/13 A3009 RMK A01 T02970127  RH  035%=      5-min Rain = 0
KSM2 210235Z 16004KT 30/13 A3009 RMK A01 T02970127  RH  035%=      5-min Rain = 0
KSM2 210236Z 16005KT 30/13 A3009 RMK A01 T02960128  RH  035%=      5-min Rain = 0
KSM2 210237Z 16005KT 30/13 A3009 RMK A01 T02950129  RH  036%=      5-min Rain = 0
KSM2 210238Z 17005KT 30/13 A3009 RMK A01 T02950129  RH  036%=      5-min Rain = 0
KSM2 210239Z 18006KT 29/13 A3009 RMK A01 T02930133  RH  037%=      5-min Rain = 0
KSM2 210240Z 18006KT 29/13 A3009 RMK A01 T02900133  RH  038%=      5-min Rain = 0
KSM2 210241Z 18005KT 29/13 A3009 RMK A01 T02870133  RH  039%=      5-min Rain = 0
KSM2 210242Z 17005KT 29/13 A3009 RMK A01 T02850132  RH  039%=      5-min Rain = 0
KSM2 210243Z 17005KT 29/13 A3009 RMK A01 T02850131  RH  039%=      5-min Rain = 0
KSM2 210244Z 16005KT 29/13 A3009 RMK A01 T02850130  RH  039%=      5-min Rain = 0
KSM2 210245Z 16006KT 29/13 A3009 RMK A01 T02860128  RH  038%=      5-min Rain = 0
KSM2 210246Z 15006KT 29/13 A3009 RMK A01 T02880128  RH  037%=      5-min Rain = 0
KSM2 210247Z 15005KT 29/13 A3009 RMK A01 T02890128  RH  037%=      5-min Rain = 0
KSM2 210248Z 15006KT 29/13 A3009 RMK A01 T02900126  RH  036%=      5-min Rain = 0
KSM2 210249Z 15005KT 29/13 A3009 RMK A01 T02910126  RH  036%=      5-min Rain = 0
KSM2 210250Z 15007KT 29/13 A3009 RMK A01 T02920125  RH  036%=      5-min Rain = 0
KSM2 210251Z 16006KT 29/13 A3009 RMK A01 T02930125  RH  036%=      5-min Rain = 0
KSM2 210252Z 16005KT 29/13 A301 RMK A01 T02930126  RH  036%=      5-min Rain = 0
KSM2 210253Z 16005KT 29/13 A301 RMK A01 T02930127  RH  036%=      5-min Rain = 0
KSM2 210254Z 15006KT 29/13 A301 RMK A01 T02920126  RH  036%=      5-min Rain = 0
KSM2 210255Z 15005KT 29/13 A3009 RMK A01 T02920126  RH  036%=      5-min Rain = 0
KSM2 210256Z 15005KT 29/13 A301 RMK A01 T02920125  RH  036%=      5-min Rain = 0
KSM2 210257Z 15005KT 29/13 A301 RMK A01 T02920126  RH  036%=      5-min Rain = 0
KSM2 210258Z 15005KT 29/13 A301 RMK A01 T02910126  RH  036%=      5-min Rain = 0
KSM2 210259Z 15006KT 29/13 A301 RMK A01 T02900126  RH  036%=      5-min Rain = 0
KSM2 210300Z 15006KT 29/13 A301 RMK A01 T02900126  RH  036%=      5-min Rain = 0
KSM2 210301Z 15006KT 29/13 A301 RMK A01 T02890126  RH  037%=      5-min Rain = 0
KSM2 210302Z 15006KT 29/13 A301 RMK A01 T02890126  RH  037%=      5-min Rain = 0
KSM2 210303Z 15006KT 29/13 A301 RMK A01 T02880126  RH  037%=      5-min Rain = 0
KSM2 210304Z 15006KT 29/13 A301 RMK A01 T02880126  RH  037%=      5-min Rain = 0
KSM2 210305Z 14007KT 29/13 A301 RMK A01 T02880126  RH  037%=      5-min Rain = 0
KSM2 210306Z 15006KT 29/13 A301 RMK A01 T02870125  RH  037%=      5-min Rain = 0
KSM2 210307Z 15006KT 29/13 A301 RMK A01 T02870125  RH  037%=      5-min Rain = 0
KSM2 210308Z 15006KT 29/13 A301 RMK A01 T02870125  RH  037%=      5-min Rain = 0
KSM2 210309Z 15006KT 29/13 A301 RMK A01 T02880125  RH  037%=      5-min Rain = 0
KSM2 210310Z 15007KT 29/12 A301 RMK A01 T02870124  RH  036%=      5-min Rain = 0
KSM2 210311Z 15006KT 29/12 A301 RMK A01 T02870124  RH  037%=      5-min Rain = 0
KSM2 210312Z 15006KT 29/13 A301 RMK A01 T02870125  RH  037%=      5-min Rain = 0
KSM2 210313Z 15007KT 29/12 A301 RMK A01 T02860124  RH  037%=      5-min Rain = 0
KSM2 210314Z 16006KT 29/12 A301 RMK A01 T02860124  RH  037%=      5-min Rain = 0
KSM2 210315Z 15007KT 29/13 A301 RMK A01 T02870125  RH  037%=      5-min Rain = 0
KSM2 210316Z 15007KT 29/12 A301 RMK A01 T02860124  RH  037%=      5-min Rain = 0
KSM2 210317Z 15008KT 29/12 A301 RMK A01 T02860123  RH  037%=      5-min Rain = 0
KSM2 210318Z 15007KT 29/12 A301 RMK A01 T02860122  RH  036%=      5-min Rain = 0
KSM2 210319Z 14006KT 29/12 A301 RMK A01 T02860123  RH  036%=      5-min Rain = 0
KSM2 210320Z 14007KT 29/12 A301 RMK A01 T02860123  RH  037%=      5-min Rain = 0
KSM2 210321Z 14007KT 29/12 A301 RMK A01 T02850124  RH  037%=      5-min Rain = 0
KSM2 210322Z 15006KT 28/12 A301 RMK A01 T02840124  RH  037%=      5-min Rain = 0
KSM2 210323Z 15006KT 28/12 A301 RMK A01 T02830124  RH  038%=      5-min Rain = 0
KSM2 210324Z 15006KT 28/12 A301 RMK A01 T02820124  RH  038%=      5-min Rain = 0
KSM2 210325Z 15006KT 28/12 A301 RMK A01 T02810124  RH  038%=      5-min Rain = 0
KSM2 210326Z 14006KT 28/12 A301 RMK A01 T02800124  RH  038%=      5-min Rain = 0
KSM2 210327Z 14006KT 28/13 A301 RMK A01 T02790125  RH  038%=      5-min Rain = 0
KSM2 210328Z 16006KT 28/12 A301 RMK A01 T02780124  RH  038%=      5-min Rain = 0
KSM2 210329Z 15006KT 28/12 A301 RMK A01 T02780124  RH  039%=      5-min Rain = 0
KSM2 210330Z 15006KT 28/13 A301 RMK A01 T02780125  RH  039%=      5-min Rain = 0
KSM2 210331Z 15007KT 28/12 A301 RMK A01 T02780123  RH  038%=      5-min Rain = 0
KSM2 210332Z 15007KT 28/12 A301 RMK A01 T02790123  RH  038%=      5-min Rain = 0
KSM2 210333Z 15006KT 28/12 A301 RMK A01 T02790122  RH  038%=      5-min Rain = 0
KSM2 210334Z 15006KT 28/12 A301 RMK A01 T02800122  RH  038%=      5-min Rain = 0
KSM2 210335Z 15006KT 28/12 A301 RMK A01 T02800121  RH  037%=      5-min Rain = 0
KSM2 210336Z 15007KT 28/12 A301 RMK A01 T02810121  RH  037%=      5-min Rain = 0
KSM2 210337Z 15008KT 28/12 A301 RMK A01 T02810121  RH  037%=      5-min Rain = 0
KSM2 210338Z 14007KT 28/12 A301 RMK A01 T02820122  RH  037%=      5-min Rain = 0
KSM2 210339Z 14008KT 28/12 A301 RMK A01 T02820121  RH  037%=      5-min Rain = 0
KSM2 210340Z 15007KT 28/12 A301 RMK A01 T02820121  RH  037%=      5-min Rain = 0
KSM2 210341Z 15007KT 28/12 A301 RMK A01 T02820122  RH  037%=      5-min Rain = 0
KSM2 210342Z 15007KT 28/12 A301 RMK A01 T02820122  RH  037%=      5-min Rain = 0
KSM2 210343Z 15006KT 28/12 A301 RMK A01 T02810121  RH  037%=      5-min Rain = 0
KSM2 210344Z 15007KT 28/12 A301 RMK A01 T02810122  RH  037%=      5-min Rain = 0
KSM2 210345Z 15006KT 28/12 A301 RMK A01 T02810122  RH  037%=      5-min Rain = 0
KSM2 210346Z 14006KT 28/12 A301 RMK A01 T02800121  RH  037%=      5-min Rain = 0
KSM2 210347Z 14007KT 28/12 A301 RMK A01 T02800122  RH  038%=      5-min Rain = 0
KSM2 210348Z 14007KT 28/12 A301 RMK A01 T02790122  RH  038%=      5-min Rain = 0
KSM2 210349Z 13006KT 28/12 A301 RMK A01 T02790122  RH  038%=      5-min Rain = 0
KSM2 210350Z 14006KT 28/12 A301 RMK A01 T02780122  RH  038%=      5-min Rain = 0
KSM2 210351Z 14006KT 28/12 A301 RMK A01 T02770121  RH  038%=      5-min Rain = 0
KSM2 210352Z 14006KT 28/12 A301 RMK A01 T02760121  RH  038%=      5-min Rain = 0
KSM2 210353Z 15007KT 28/12 A301 RMK A01 T02750121  RH  038%=      5-min Rain = 0
KSM2 210354Z 15006KT 28/12 A301 RMK A01 T02750121  RH  038%=      5-min Rain = 0
KSM2 210355Z 15005KT 28/12 A301 RMK A01 T02750121  RH  038%=      5-min Rain = 0
KSM2 210356Z 15005KT 28/12 A301 RMK A01 T02750122  RH  039%=      5-min Rain = 0
KSM2 210357Z 15006KT 28/12 A301 RMK A01 T02750122  RH  039%=      5-min Rain = 0
KSM2 210358Z 15006KT 27/12 A301 RMK A01 T02740122  RH  039%=      5-min Rain = 0
KSM2 210359Z 15005KT 27/12 A301 RMK A01 T02740121  RH  039%=      5-min Rain = 0
KSM2 210400Z 15006KT 27/12 A301 RMK A01 T02740121  RH  039%=      5-min Rain = 0
KSM2 210401Z 15006KT 27/12 A301 RMK A01 T02740121  RH  039%=      5-min Rain = 0
KSM2 210402Z 15006KT 27/12 A301 RMK A01 T02740121  RH  039%=      5-min Rain = 0
KSM2 210403Z 15006KT 27/12 A3011 RMK A01 T02740122  RH  039%=      5-min Rain = 0
KSM2 210404Z 15006KT 27/12 A3011 RMK A01 T02740122  RH  039%=      5-min Rain = 0
KSM2 210405Z 15007KT 27/12 A3011 RMK A01 T02740122  RH  039%=      5-min Rain = 0
KSM2 210406Z 15006KT 27/12 A3011 RMK A01 T02730122  RH  039%=      5-min Rain = 0
KSM2 210407Z 15006KT 27/12 A3011 RMK A01 T02730122  RH  039%=      5-min Rain = 0
KSM2 210408Z 15006KT 27/12 A3011 RMK A01 T02720122  RH  039%=      5-min Rain = 0
KSM2 210409Z 15006KT 27/12 A3011 RMK A01 T02710122  RH  039%=      5-min Rain = 0
KSM2 210410Z 14006KT 27/12 A3011 RMK A01 T02710122  RH  040%=      5-min Rain = 0
KSM2 210411Z 14007KT 27/12 A3011 RMK A01 T02710122  RH  040%=      5-min Rain = 0
KSM2 210412Z 14007KT 27/12 A3011 RMK A01 T02710122  RH  040%=      5-min Rain = 0
KSM2 210413Z 14007KT 27/12 A3011 RMK A01 T02700123  RH  040%=      5-min Rain = 0
KSM2 210414Z 15007KT 27/12 A3011 RMK A01 T02700122  RH  040%=      5-min Rain = 0
KSM2 210415Z 14007KT 27/12 A3011 RMK A01 T02700122  RH  040%=      5-min Rain = 0
KSM2 210416Z 13006KT 27/12 A3011 RMK A01 T02690122  RH  040%=      5-min Rain = 0
KSM2 210417Z 13005KT 27/12 A3011 RMK A01 T02680122  RH  040%=      5-min Rain = 0
KSM2 210418Z 14005KT 27/12 A3011 RMK A01 T02670123  RH  041%=      5-min Rain = 0
KSM2 210419Z 14005KT 27/12 A3011 RMK A01 T02660123  RH  041%=      5-min Rain = 0
KSM2 210420Z 14006KT 27/12 A3011 RMK A01 T02650122  RH  041%=      5-min Rain = 0
KSM2 210421Z 14007KT 27/12 A3011 RMK A01 T02650122  RH  041%=      5-min Rain = 0
KSM2 210422Z 14006KT 26/12 A301 RMK A01 T02640122  RH  041%=      5-min Rain = 0
KSM2 210423Z 14007KT 27/12 A301 RMK A01 T02650122  RH  041%=      5-min Rain = 0
KSM2 210424Z 13006KT 27/12 A301 RMK A01 T02650122  RH  041%=      5-min Rain = 0
KSM2 210425Z 14006KT 27/12 A301 RMK A01 T02650122  RH  041%=      5-min Rain = 0
KSM2 210426Z 14006KT 27/12 A301 RMK A01 T02660123  RH  041%=      5-min Rain = 0
KSM2 210427Z 14005KT 27/12 A301 RMK A01 T02660123  RH  041%=      5-min Rain = 0
KSM2 210428Z 14006KT 27/12 A301 RMK A01 T02650123  RH  041%=      5-min Rain = 0
KSM2 210429Z 14007KT 27/12 A301 RMK A01 T02650123  RH  041%=      5-min Rain = 0
KSM2 210430Z 14007KT 26/12 A301 RMK A01 T02640123  RH  041%=      5-min Rain = 0
KSM2 210431Z 14007KT 27/12 A301 RMK A01 T02650123  RH  041%=      5-min Rain = 0
KSM2 210432Z 14007KT 27/12 A301 RMK A01 T02650123  RH  041%=      5-min Rain = 0
KSM2 210433Z 14007KT 26/12 A301 RMK A01 T02640123  RH  041%=      5-min Rain = 0
KSM2 210434Z 14007KT 26/12 A301 RMK A01 T02640123  RH  041%=      5-min Rain = 0
KSM2 210435Z 14007KT 26/12 A301 RMK A01 T02640123  RH  041%=      5-min Rain = 0
KSM2 210436Z 14007KT 26/12 A301 RMK A01 T02640123  RH  041%=      5-min Rain = 0
KSM2 210437Z 14008KT 27/12 A301 RMK A01 T02650123  RH  041%=      5-min Rain = 0
KSM2 210438Z 14007KT 26/12 A301 RMK A01 T02640123  RH  041%=      5-min Rain = 0
KSM2 210439Z 14006KT 26/12 A301 RMK A01 T02640123  RH  042%=      5-min Rain = 0
KSM2 210440Z 14007KT 26/12 A301 RMK A01 T02640123  RH  042%=      5-min Rain = 0
KSM2 210441Z 14006KT 26/12 A301 RMK A01 T02630124  RH  042%=      5-min Rain = 0
KSM2 210442Z 14007KT 26/12 A301 RMK A01 T02630124  RH  042%=      5-min Rain = 0
KSM2 210443Z 14007KT 26/12 A301 RMK A01 T02630124  RH  042%=      5-min Rain = 0
KSM2 210444Z 13007KT 26/12 A301 RMK A01 T02630124  RH  042%=      5-min Rain = 0
KSM2 210445Z 14008KT 26/12 A301 RMK A01 T02630124  RH  042%=      5-min Rain = 0
KSM2 210446Z 13007KT 26/12 A301 RMK A01 T02630124  RH  042%=      5-min Rain = 0
KSM2 210447Z 13006KT 26/12 A301 RMK A01 T02620124  RH  042%=      5-min Rain = 0
KSM2 210448Z 13007KT 26/12 A301 RMK A01 T02620124  RH  042%=      5-min Rain = 0
KSM2 210449Z 13007KT 26/12 A301 RMK A01 T02620124  RH  042%=      5-min Rain = 0
KSM2 210450Z 13007KT 26/12 A301 RMK A01 T02620124  RH  042%=      5-min Rain = 0
KSM2 210451Z 13007KT 26/12 A301 RMK A01 T02610124  RH  042%=      5-min Rain = 0
KSM2 210452Z 13006KT 26/12 A301 RMK A01 T02610124  RH  043%=      5-min Rain = 0
KSM2 210453Z 13007KT 26/13 A301 RMK A01 T02610125  RH  043%=      5-min Rain = 0
KSM2 210454Z 13007KT 26/13 A301 RMK A01 T02610125  RH  043%=      5-min Rain = 0
KSM2 210455Z 13006KT 26/12 A301 RMK A01 T02600124  RH  043%=      5-min Rain = 0
KSM2 210456Z 13005KT 26/12 A301 RMK A01 T02600124  RH  043%=      5-min Rain = 0
KSM2 210457Z 13007KT 26/13 A301 RMK A01 T02600125  RH  043%=      5-min Rain = 0
KSM2 210458Z 13007KT 26/13 A301 RMK A01 T02600125  RH  043%=      5-min Rain = 0
KSM2 210459Z 13006KT 26/13 A301 RMK A01 T02600125  RH  043%=      5-min Rain = 0

Page generated in 0.1219 seconds.